Wetterdaten: Freitag, 03.08.2018
Datum Zeit Temp. Aussen Temp. o. S. +5cm Feuchte Auss Luftdruck Regen Sonnenschein Regendauer Solar Windben Empfang
03.08.2018 00:00 24,7 C 22,8 C 22,8 C 64 % 1020,1 hPa 0,0 l/m 0 min 0 min 0 W/m 9,0 km/h (2 Bft) 100,00 %
03.08.2018 00:02 24,6 C 22,8 C 22,8 C 64 % 1020,1 hPa 0,0 l/m 0 min 0 min 0 W/m 6,8 km/h (2 Bft) 97,44 %
03.08.2018 00:04 24,6 C 22,8 C 22,8 C 64 % 1020,2 hPa 0,0 l/m 0 min 0 min 0 W/m 13,5 km/h (3 Bft) 100,00 %
03.08.2018 00:08 24,5 C 22,8 C 22,8 C 65 % 1020,3 hPa 0,0 l/m 0 min 0 min 0 W/m 4,5 km/h (1 Bft) 100,00 %
03.08.2018 00:10 24,4 C 22,8 C 22,8 C 65 % 1020,2 hPa 0,0 l/m 0 min 0 min 0 W/m 4,5 km/h (1 Bft) 100,00 %
03.08.2018 00:12 24,4 C 22,8 C 22,8 C 65 % 1020,1 hPa 0,0 l/m 0 min 0 min 0 W/m 4,5 km/h (1 Bft) 100,00 %
03.08.2018 00:14 24,4 C 22,8 C 22,8 C 65 % 1020,2 hPa 0,0 l/m 0 min 0 min 0 W/m 4,5 km/h (1 Bft) 97,87 %
03.08.2018 00:16 24,3 C 22,8 C 22,8 C 65 % 1020,2 hPa 0,0 l/m 0 min 0 min 0 W/m 4,5 km/h (1 Bft) 100,00 %
03.08.2018 00:18 24,3 C 22,8 C 22,8 C 65 % 1020,1 hPa 0,0 l/m 0 min 0 min 0 W/m 4,5 km/h (1 Bft) 100,00 %
03.08.2018 00:20 24,3 C 22,8 C 22,8 C 65 % 1020,1 hPa 0,0 l/m 0 min 0 min 0 W/m 2,3 km/h (1 Bft) 100,00 %
03.08.2018 00:22 24,3 C 22,8 C 22,8 C 65 % 1020,1 hPa 0,0 l/m 0 min 0 min 0 W/m 4,5 km/h (1 Bft) 100,00 %
03.08.2018 00:24 24,2 C 22,8 C 22,8 C 65 % 1020,1 hPa 0,0 l/m 0 min 0 min 0 W/m 6,8 km/h (2 Bft) 100,00 %
03.08.2018 00:26 24,2 C 22,8 C 22,8 C 65 % 1020,1 hPa 0,0 l/m 0 min 0 min 0 W/m 6,8 km/h (2 Bft) 100,00 %
03.08.2018 00:28 24,2 C 22,8 C 22,8 C 65 % 1020,1 hPa 0,0 l/m 0 min 0 min 0 W/m 4,5 km/h (1 Bft) 100,00 %
03.08.2018 00:30 24,2 C 22,8 C 22,8 C 65 % 1020,1 hPa 0,0 l/m 0 min 0 min 0 W/m 11,3 km/h (2 Bft) 100,00 %
03.08.2018 00:32 24,1 C 22,8 C 22,8 C 65 % 1020,1 hPa 0,0 l/m 0 min 0 min 0 W/m 4,5 km/h (1 Bft) 100,00 %
03.08.2018 00:34 24,1 C 22,8 C 22,8 C 65 % 1020,1 hPa 0,0 l/m 0 min 0 min 0 W/m 4,5 km/h (1 Bft) 100,00 %
03.08.2018 00:36 24,1 C 22,8 C 22,8 C 66 % 1020,2 hPa 0,0 l/m 0 min 0 min 0 W/m 6,8 km/h (2 Bft) 100,00 %
03.08.2018 00:38 24,1 C 22,8 C 22,8 C 66 % 1020,1 hPa 0,0 l/m 0 min 0 min 0 W/m 6,8 km/h (2 Bft) 100,00 %
03.08.2018 00:40 24,1 C 22,8 C 22,8 C 66 % 1020,1 hPa 0,0 l/m 0 min 0 min 0 W/m 2,3 km/h (1 Bft) 100,00 %
03.08.2018 00:42 24,1 C 22,8 C 22,8 C 66 % 1020,2 hPa 0,0 l/m 0 min 0 min 0 W/m 4,5 km/h (1 Bft) 100,00 %
03.08.2018 00:44 24,0 C 22,8 C 22,8 C 66 % 1020,1 hPa 0,0 l/m 0 min 0 min 0 W/m 6,8 km/h (2 Bft) 100,00 %
03.08.2018 00:46 24,0 C 22,8 C 22,8 C 66 % 1020,2 hPa 0,0 l/m 0 min 0 min 0 W/m 2,3 km/h (1 Bft) 97,87 %
03.08.2018 00:48 24,0 C 22,8 C 22,8 C 66 % 1020,1 hPa 0,0 l/m 0 min 0 min 0 W/m 2,3 km/h (1 Bft) 100,00 %
03.08.2018 00:50 24,0 C 22,8 C 22,8 C 66 % 1020,2 hPa 0,0 l/m 0 min 0 min 0 W/m 6,8 km/h (2 Bft) 100,00 %
03.08.2018 00:52 23,9 C 22,8 C 22,8 C 66 % 1020,2 hPa 0,0 l/m 0 min 0 min 0 W/m 4,5 km/h (1 Bft) 100,00 %
03.08.2018 00:54 23,9 C 22,8 C 22,8 C 66 % 1020,1 hPa 0,0 l/m 0 min 0 min 0 W/m 4,5 km/h (1 Bft) 100,00 %
03.08.2018 00:56 23,9 C 22,2 C 22,8 C 66 % 1020,2 hPa 0,0 l/m 0 min 0 min 0 W/m 6,8 km/h (2 Bft) 97,87 %
03.08.2018 00:58 23,9 C 22,2 C 22,2 C 66 % 1020,2 hPa 0,0 l/m 0 min 0 min 0 W/m 4,5 km/h (1 Bft) 100,00 %
03.08.2018 01:00 23,9 C 22,2 C 22,2 C 66 % 1020,1 hPa 0,0 l/m 0 min 0 min 0 W/m 4,5 km/h (1 Bft) 100,00 %
03.08.2018 01:02 23,9 C 22,2 C 22,2 C 67 % 1020,1 hPa 0,0 l/m 0 min 0 min 0 W/m 6,8 km/h (2 Bft) 97,87 %
03.08.2018 01:04 23,8 C 22,2 C 22,2 C 67 % 1020,2 hPa 0,0 l/m 0 min 0 min 0 W/m 6,8 km/h (2 Bft) 100,00 %
03.08.2018 01:06 23,8 C 22,2 C 22,2 C 67 % 1020,2 hPa 0,0 l/m 0 min 0 min 0 W/m 4,5 km/h (1 Bft) 97,87 %
03.08.2018 01:08 23,8 C 22,2 C 22,2 C 67 % 1020,2 hPa 0,0 l/m 0 min 0 min 0 W/m 6,8 km/h (2 Bft) 100,00 %
03.08.2018 01:10 23,7 C 22,2 C 22,2 C 67 % 1020,2 hPa 0,0 l/m 0 min 0 min 0 W/m 6,8 km/h (2 Bft) 100,00 %
03.08.2018 01:12 23,7 C 22,2 C 22,2 C 67 % 1020,2 hPa 0,0 l/m 0 min 0 min 0 W/m 2,3 km/h (1 Bft) 100,00 %
03.08.2018 01:14 23,7 C 21,7 C 22,2 C 67 % 1020,1 hPa 0,0 l/m 0 min 0 min 0 W/m 4,5 km/h (1 Bft) 97,87 %
03.08.2018 01:16 23,7 C 21,7 C 22,2 C 67 % 1020,2 hPa 0,0 l/m 0 min 0 min 0 W/m 2,3 km/h (1 Bft) 100,00 %
03.08.2018 01:18 23,6 C 21,7 C 21,7 C 68 % 1020,1 hPa 0,0 l/m 0 min 0 min 0 W/m 4,5 km/h (1 Bft) 97,87 %
03.08.2018 01:20 23,6 C 21,7 C 21,7 C 68 % 1020,1 hPa 0,0 l/m 0 min 0 min 0 W/m 2,3 km/h (1 Bft) 95,74 %
03.08.2018 01:22 23,5 C 21,7 C 21,7 C 68 % 1020,2 hPa 0,0 l/m 0 min 0 min 0 W/m 4,5 km/h (1 Bft) 97,87 %
03.08.2018 01:24 23,5 C 21,7 C 21,7 C 68 % 1020,2 hPa 0,0 l/m 0 min 0 min 0 W/m 4,5 km/h (1 Bft) 95,74 %
03.08.2018 01:26 23,4 C 21,7 C 21,7 C 68 % 1020,1 hPa 0,0 l/m 0 min 0 min 0 W/m 4,5 km/h (1 Bft) 95,65 %
03.08.2018 01:28 23,4 C 21,7 C 21,7 C 68 % 1020,1 hPa 0,0 l/m 0 min 0 min 0 W/m 0,0 km/h (0 Bft) 95,74 %
03.08.2018 01:30 23,3 C 21,7 C 21,7 C 68 % 1020,1 hPa 0,0 l/m 0 min 0 min 0 W/m 2,3 km/h (1 Bft) 93,62 %
03.08.2018 01:32 23,3 C 21,7 C 21,7 C 68 % 1020,1 hPa 0,0 l/m 0 min 0 min 0 W/m 4,5 km/h (1 Bft) 93,75 %
03.08.2018 01:34 23,2 C 21,7 C 21,7 C 69 % 1020,1 hPa 0,0 l/m 0 min 0 min 0 W/m 4,5 km/h (1 Bft) 95,74 %
03.08.2018 01:36 23,2 C 21,7 C 21,7 C 69 % 1020,1 hPa 0,0 l/m 0 min 0 min 0 W/m 6,8 km/h (2 Bft) 93,62 %
03.08.2018 01:38 23,2 C 21,1 C 21,7 C 69 % 1020,1 hPa 0,0 l/m 0 min 0 min 0 W/m 2,3 km/h (1 Bft) 93,48 %
03.08.2018 01:40 23,1 C 21,1 C 21,7 C 69 % 1020,1 hPa 0,0 l/m 0 min 0 min 0 W/m 2,3 km/h (1 Bft) 93,62 %
03.08.2018 01:42 23,1 C 21,1 C 21,7 C 69 % 1020,1 hPa 0,0 l/m 0 min 0 min 0 W/m 2,3 km/h (1 Bft) 93,62 %
03.08.2018 01:44 23,1 C 21,1 C 21,7 C 69 % 1020,1 hPa 0,0 l/m 0 min 0 min 0 W/m 2,3 km/h (1 Bft) 93,62 %
03.08.2018 01:46 23,1 C 21,1 C 21,7 C 70 % 1020,1 hPa 0,0 l/m 0 min 0 min 0 W/m 2,3 km/h (1 Bft) 93,62 %
03.08.2018 01:48 23,0 C 21,1 C 21,7 C 70 % 1020,1 hPa 0,0 l/m 0 min 0 min 0 W/m 4,5 km/h (1 Bft) 91,49 %
03.08.2018 01:50 23,0 C 21,1 C 21,7 C 70 % 1020,0 hPa 0,0 l/m 0 min 0 min 0 W/m 2,3 km/h (1 Bft) 93,48 %
03.08.2018 01:52 22,9 C 21,1 C 21,1 C 70 % 1019,9 hPa 0,0 l/m 0 min 0 min 0 W/m 4,5 km/h (1 Bft) 91,49 %
03.08.2018 01:54 22,9 C 21,1 C 21,1 C 70 % 1020,0 hPa 0,0 l/m 0 min 0 min 0 W/m 0,0 km/h (0 Bft) 91,49 %
03.08.2018 01:56 22,9 C 21,1 C 21,1 C 70 % 1019,9 hPa 0,0 l/m 0 min 0 min 0 W/m 2,3 km/h (1 Bft) 93,62 %
03.08.2018 01:58 22,8 C 21,1 C 21,1 C 70 % 1019,8 hPa 0,0 l/m 0 min 0 min 0 W/m 4,5 km/h (1 Bft) 91,49 %
03.08.2018 02:00 22,8 C 21,1 C 21,1 C 70 % 1019,8 hPa 0,0 l/m 0 min 0 min 0 W/m 4,5 km/h (1 Bft) 93,62 %
03.08.2018 02:02 22,8 C 21,1 C 21,1 C 70 % 1019,8 hPa 0,0 l/m 0 min 0 min 0 W/m 4,5 km/h (1 Bft) 91,30 %
03.08.2018 02:04 22,7 C 21,1 C 21,1 C 70 % 1019,8 hPa 0,0 l/m 0 min 0 min 0 W/m 2,3 km/h (1 Bft) 93,62 %
03.08.2018 02:06 22,7 C 21,1 C 21,1 C 71 % 1019,8 hPa 0,0 l/m 0 min 0 min 0 W/m 4,5 km/h (1 Bft) 91,49 %
03.08.2018 02:08 22,6 C 21,1 C 21,1 C 71 % 1019,8 hPa 0,0 l/m 0 min 0 min 0 W/m 2,3 km/h (1 Bft) 97,87 %
03.08.2018 02:10 22,6 C 21,1 C 21,1 C 71 % 1019,8 hPa 0,0 l/m 0 min 0 min 0 W/m 2,3 km/h (1 Bft) 95,74 %
03.08.2018 02:12 22,6 C 21,1 C 21,1 C 71 % 1019,8 hPa 0,0 l/m 0 min 0 min 0 W/m 2,3 km/h (1 Bft) 95,74 %
03.08.2018 02:14 22,6 C 21,1 C 21,1 C 71 % 1019,8 hPa 0,0 l/m 0 min 0 min 0 W/m 2,3 km/h (1 Bft) 93,48 %
03.08.2018 02:16 22,5 C 21,1 C 21,1 C 71 % 1019,8 hPa 0,0 l/m 0 min 0 min 0 W/m 2,3 km/h (1 Bft) 95,74 %
03.08.2018 02:18 22,5 C 20,6 C 21,1 C 71 % 1019,8 hPa 0,0 l/m 0 min 0 min 0 W/m 2,3 km/h (1 Bft) 95,74 %
03.08.2018 02:20 22,4 C 20,6 C 21,1 C 72 % 1019,7 hPa 0,0 l/m 0 min 0 min 0 W/m 2,3 km/h (1 Bft) 95,74 %
03.08.2018 02:22 22,4 C 20,6 C 21,1 C 72 % 1019,7 hPa 0,0 l/m 0 min 0 min 0 W/m 2,3 km/h (1 Bft) 93,62 %
03.08.2018 02:24 22,4 C 20,6 C 21,1 C 71 % 1019,7 hPa 0,0 l/m 0 min 0 min 0 W/m 2,3 km/h (1 Bft) 97,87 %
03.08.2018 02:26 22,4 C 20,6 C 21,1 C 71 % 1019,7 hPa 0,0 l/m 0 min 0 min 0 W/m 6,8 km/h (2 Bft) 100,00 %
03.08.2018 02:28 22,3 C 20,6 C 21,1 C 71 % 1019,7 hPa 0,0 l/m 0 min 0 min 0 W/m 0,0 km/h (0 Bft) 97,87 %
03.08.2018 02:30 22,3 C 20,6 C 20,6 C 72 % 1019,7 hPa 0,0 l/m 0 min 0 min 0 W/m 2,3 km/h (1 Bft) 100,00 %
03.08.2018 02:32 22,3 C 20,6 C 20,6 C 72 % 1019,7 hPa 0,0 l/m 0 min 0 min 0 W/m 0,0 km/h (0 Bft) 100,00 %
03.08.2018 02:34 22,2 C 20,6 C 20,6 C 72 % 1019,6 hPa 0,0 l/m 0 min 0 min 0 W/m 9,0 km/h (2 Bft) 100,00 %
03.08.2018 02:36 22,2 C 20,6 C 21,1 C 72 % 1019,6 hPa 0,0 l/m 0 min 0 min 0 W/m 9,0 km/h (2 Bft) 100,00 %
03.08.2018 02:38 22,2 C 20,6 C 21,1 C 72 % 1019,6 hPa 0,0 l/m 0 min 0 min 0 W/m 2,3 km/h (1 Bft) 95,65 %
03.08.2018 02:40 22,2 C 20,6 C 21,1 C 72 % 1019,7 hPa 0,0 l/m 0 min 0 min 0 W/m 0,0 km/h (0 Bft) 100,00 %
03.08.2018 02:42 22,1 C 20,6 C 20,6 C 72 % 1019,7 hPa 0,0 l/m 0 min 0 min 0 W/m 0,0 km/h (0 Bft) 100,00 %
03.08.2018 02:44 22,1 C 20,6 C 20,6 C 73 % 1019,7 hPa 0,0 l/m 0 min 0 min 0 W/m 2,3 km/h (1 Bft) 100,00 %
03.08.2018 02:46 22,1 C 20,6 C 20,6 C 73 % 1019,7 hPa 0,0 l/m 0 min 0 min 0 W/m 2,3 km/h (1 Bft) 95,74 %
03.08.2018 02:48 22,1 C 20,0 C 20,6 C 73 % 1019,7 hPa 0,0 l/m 0 min 0 min 0 W/m 2,3 km/h (1 Bft) 100,00 %
03.08.2018 02:50 22,0 C 20,0 C 20,6 C 73 % 1019,7 hPa 0,0 l/m 0 min 0 min 0 W/m 2,3 km/h (1 Bft) 100,00 %
03.08.2018 02:52 21,9 C 20,0 C 20,6 C 73 % 1019,7 hPa 0,0 l/m 0 min 0 min 0 W/m 2,3 km/h (1 Bft) 97,87 %
03.08.2018 02:54 21,9 C 20,0 C 20,6 C 73 % 1019,7 hPa 0,0 l/m 0 min 0 min 0 W/m 0,0 km/h (0 Bft) 100,00 %
03.08.2018 02:56 21,9 C 20,0 C 20,6 C 73 % 1019,6 hPa 0,0 l/m 0 min 0 min 0 W/m 2,3 km/h (1 Bft) 100,00 %
03.08.2018 02:58 21,9 C 20,0 C 20,6 C 73 % 1019,6 hPa 0,0 l/m 0 min 0 min 0 W/m 2,3 km/h (1 Bft) 100,00 %
03.08.2018 03:00 21,8 C 20,0 C 20,6 C 73 % 1019,6 hPa 0,0 l/m 0 min 0 min 0 W/m 0,0 km/h (0 Bft) 97,83 %
03.08.2018 03:02 21,8 C 20,0 C 20,0 C 73 % 1019,6 hPa 0,0 l/m 0 min 0 min 0 W/m 0,0 km/h (0 Bft) 100,00 %
03.08.2018 03:04 21,8 C 20,0 C 20,6 C 73 % 1019,7 hPa 0,0 l/m 0 min 0 min 0 W/m 4,5 km/h (1 Bft) 100,00 %
03.08.2018 03:06 21,7 C 20,0 C 20,6 C 73 % 1019,6 hPa 0,0 l/m 0 min 0 min 0 W/m 2,3 km/h (1 Bft) 97,87 %
03.08.2018 03:08 21,7 C 20,0 C 20,6 C 73 % 1019,6 hPa 0,0 l/m 0 min 0 min 0 W/m 2,3 km/h (1 Bft) 100,00 %
03.08.2018 03:10 21,7 C 20,0 C 20,0 C 74 % 1019,6 hPa 0,0 l/m 0 min 0 min 0 W/m 2,3 km/h (1 Bft) 100,00 %
03.08.2018 03:12 21,7 C 20,0 C 20,0 C 74 % 1019,7 hPa 0,0 l/m 0 min 0 min 0 W/m 0,0 km/h (0 Bft) 100,00 %
03.08.2018 03:14 21,6 C 20,0 C 20,0 C 74 % 1019,6 hPa 0,0 l/m 0 min 0 min 0 W/m 0,0 km/h (0 Bft) 100,00 %
03.08.2018 03:16 21,6 C 20,0 C 20,0 C 74 % 1019,6 hPa 0,0 l/m 0 min 0 min 0 W/m 2,3 km/h (1 Bft) 100,00 %
03.08.2018 03:18 21,6 C 20,0 C 20,0 C 74 % 1019,5 hPa 0,0 l/m 0 min 0 min 0 W/m 0,0 km/h (0 Bft) 100,00 %
03.08.2018 03:20 21,5 C 20,0 C 20,0 C 74 % 1019,6 hPa 0,0 l/m 0 min 0 min 0 W/m 0,0 km/h (0 Bft) 100,00 %
03.08.2018 03:22 21,4 C 20,0 C 20,0 C 74 % 1019,6 hPa 0,0 l/m 0 min 0 min 0 W/m 0,0 km/h (0 Bft) 100,00 %
03.08.2018 03:24 21,4 C 20,0 C 20,0 C 73 % 1019,6 hPa 0,0 l/m 0 min 0 min 0 W/m 2,3 km/h (1 Bft) 100,00 %
03.08.2018 03:26 21,4 C 20,0 C 20,0 C 73 % 1019,6 hPa 0,0 l/m 0 min 0 min 0 W/m 2,3 km/h (1 Bft) 100,00 %
03.08.2018 03:28 21,4 C 20,0 C 20,0 C 74 % 1019,6 hPa 0,0 l/m 0 min 0 min 0 W/m 0,0 km/h (0 Bft) 100,00 %
03.08.2018 03:30 21,3 C 20,0 C 20,0 C 74 % 1019,5 hPa 0,0 l/m 0 min 0 min 0 W/m 0,0 km/h (0 Bft) 100,00 %
03.08.2018 03:32 21,3 C 20,0 C 20,0 C 74 % 1019,5 hPa 0,0 l/m 0 min 0 min 0 W/m 2,3 km/h (1 Bft) 100,00 %
03.08.2018 03:34 21,3 C 20,0 C 20,0 C 74 % 1019,5 hPa 0,0 l/m 0 min 0 min 0 W/m 0,0 km/h (0 Bft) 100,00 %
03.08.2018 03:36 21,3 C 20,0 C 20,0 C 74 % 1019,5 hPa 0,0 l/m 0 min 0 min 0 W/m 0,0 km/h (0 Bft) 100,00 %
03.08.2018 03:38 21,3 C 20,0 C 20,0 C 74 % 1019,5 hPa 0,0 l/m 0 min 0 min 0 W/m 0,0 km/h (0 Bft) 100,00 %
03.08.2018 03:40 21,2 C 20,0 C 20,0 C 74 % 1019,6 hPa 0,0 l/m 0 min 0 min 0 W/m 0,0 km/h (0 Bft) 100,00 %
03.08.2018 03:42 21,2 C 20,0 C 20,0 C 74 % 1019,5 hPa 0,0 l/m 0 min 0 min 0 W/m 0,0 km/h (0 Bft) 100,00 %
03.08.2018 03:44 21,2 C 20,0 C 20,0 C 74 % 1019,5 hPa 0,0 l/m 0 min 0 min 0 W/m 0,0 km/h (0 Bft) 100,00 %
03.08.2018 03:46 21,2 C 20,0 C 20,0 C 74 % 1019,5 hPa 0,0 l/m 0 min 0 min 0 W/m 4,5 km/h (1 Bft) 100,00 %
03.08.2018 03:48 21,1 C 20,0 C 20,0 C 74 % 1019,5 hPa 0,0 l/m 0 min 0 min 0 W/m 2,3 km/h (1 Bft) 97,83 %
03.08.2018 03:50 21,1 C 20,0 C 20,0 C 75 % 1019,5 hPa 0,0 l/m 0 min 0 min 0 W/m 2,3 km/h (1 Bft) 100,00 %
03.08.2018 03:52 21,1 C 20,0 C 20,0 C 75 % 1019,5 hPa 0,0 l/m 0 min 0 min 0 W/m 2,3 km/h (1 Bft) 100,00 %
03.08.2018 03:54 21,1 C 20,0 C 20,0 C 75 % 1019,5 hPa 0,0 l/m 0 min 0 min 0 W/m 2,3 km/h (1 Bft) 97,87 %
03.08.2018 03:56 21,1 C 20,0 C 20,0 C 75 % 1019,5 hPa 0,0 l/m 0 min 0 min 0 W/m 0,0 km/h (0 Bft) 97,87 %
03.08.2018 03:58 21,0 C 20,0 C 20,0 C 75 % 1019,5 hPa 0,0 l/m 0 min 0 min 0 W/m 2,3 km/h (1 Bft) 100,00 %
03.08.2018 04:00 21,0 C 20,0 C 20,0 C 75 % 1019,5 hPa 0,0 l/m 0 min 0 min 0 W/m 0,0 km/h (0 Bft) 97,83 %
03.08.2018 04:02 21,0 C 20,0 C 20,0 C 75 % 1019,5 hPa 0,0 l/m 0 min 0 min 0 W/m 0,0 km/h (0 Bft) 100,00 %
03.08.2018 04:07 20,9 C 20,0 C 20,0 C 75 % 1019,5 hPa 0,0 l/m 0 min 0 min 0 W/m 4,5 km/h (1 Bft) 89,29 %
03.08.2018 04:08 20,9 C 20,0 C 20,0 C 75 % 1019,5 hPa 0,0 l/m 0 min 0 min 0 W/m 2,3 km/h (1 Bft) 95,83 %
03.08.2018 04:10 20,9 C 20,0 C 20,0 C 75 % 1019,5 hPa 0,0 l/m 0 min 0 min 0 W/m 0,0 km/h (0 Bft) 97,83 %
03.08.2018 04:12 20,9 C 19,4 C 20,0 C 75 % 1019,5 hPa 0,0 l/m 0 min 0 min 0 W/m 4,5 km/h (1 Bft) 97,87 %
03.08.2018 04:14 20,9 C 19,4 C 20,0 C 75 % 1019,5 hPa 0,0 l/m 0 min 0 min 0 W/m 2,3 km/h (1 Bft) 93,62 %
03.08.2018 04:16 20,9 C 19,4 C 20,0 C 75 % 1019,4 hPa 0,0 l/m 0 min 0 min 0 W/m 4,5 km/h (1 Bft) 93,62 %
03.08.2018 04:18 20,9 C 19,4 C 20,0 C 75 % 1019,4 hPa 0,0 l/m 0 min 0 min 0 W/m 4,5 km/h (1 Bft) 97,87 %
03.08.2018 04:20 20,9 C 19,4 C 20,0 C 75 % 1019,4 hPa 0,0 l/m 0 min 0 min 0 W/m 2,3 km/h (1 Bft) 97,87 %
03.08.2018 04:22 20,8 C 19,4 C 20,0 C 75 % 1019,4 hPa 0,0 l/m 0 min 0 min 0 W/m 0,0 km/h (0 Bft) 95,65 %
03.08.2018 04:24 20,8 C 18,9 C 19,4 C 76 % 1019,4 hPa 0,0 l/m 0 min 0 min 0 W/m 2,3 km/h (1 Bft) 93,62 %
03.08.2018 04:26 20,8 C 18,9 C 19,4 C 76 % 1019,5 hPa 0,0 l/m 0 min 0 min 0 W/m 0,0 km/h (0 Bft) 95,74 %
03.08.2018 04:28 20,8 C 18,9 C 19,4 C 76 % 1019,5 hPa 0,0 l/m 0 min 0 min 0 W/m 0,0 km/h (0 Bft) 95,74 %
03.08.2018 04:30 20,8 C 18,9 C 19,4 C 76 % 1019,5 hPa 0,0 l/m 0 min 0 min 0 W/m 2,3 km/h (1 Bft) 95,74 %
03.08.2018 04:32 20,7 C 18,9 C 19,4 C 76 % 1019,4 hPa 0,0 l/m 0 min 0 min 0 W/m 2,3 km/h (1 Bft) 95,74 %
03.08.2018 04:34 20,7 C 18,9 C 19,4 C 76 % 1019,4 hPa 0,0 l/m 0 min 0 min 0 W/m 2,3 km/h (1 Bft) 97,83 %
03.08.2018 04:36 20,7 C 18,9 C 19,4 C 76 % 1019,5 hPa 0,0 l/m 0 min 0 min 0 W/m 2,3 km/h (1 Bft) 95,74 %
03.08.2018 04:38 20,6 C 18,9 C 19,4 C 76 % 1019,5 hPa 0,0 l/m 0 min 0 min 0 W/m 0,0 km/h (0 Bft) 95,74 %
03.08.2018 04:40 20,6 C 18,9 C 19,4 C 76 % 1019,5 hPa 0,0 l/m 0 min 0 min 0 W/m 0,0 km/h (0 Bft) 95,74 %
03.08.2018 04:42 20,6 C 18,9 C 19,4 C 77 % 1019,5 hPa 0,0 l/m 0 min 0 min 0 W/m 2,3 km/h (1 Bft) 93,62 %
03.08.2018 04:44 20,6 C 18,9 C 19,4 C 77 % 1019,5 hPa 0,0 l/m 0 min 0 min 0 W/m 2,3 km/h (1 Bft) 95,74 %
03.08.2018 04:46 20,5 C 18,9 C 19,4 C 77 % 1019,5 hPa 0,0 l/m 0 min 0 min 0 W/m 2,3 km/h (1 Bft) 95,65 %
03.08.2018 04:48 20,5 C 18,9 C 19,4 C 77 % 1019,6 hPa 0,0 l/m 0 min 0 min 0 W/m 0,0 km/h (0 Bft) 93,62 %
03.08.2018 04:50 20,4 C 18,9 C 19,4 C 77 % 1019,6 hPa 0,0 l/m 0 min 0 min 0 W/m 0,0 km/h (0 Bft) 95,74 %
03.08.2018 04:52 20,4 C 18,9 C 19,4 C 77 % 1019,6 hPa 0,0 l/m 0 min 0 min 0 W/m 0,0 km/h (0 Bft) 95,74 %
03.08.2018 04:54 20,4 C 18,9 C 19,4 C 77 % 1019,6 hPa 0,0 l/m 0 min 0 min 0 W/m 0,0 km/h (0 Bft) 95,74 %
03.08.2018 04:56 20,3 C 18,9 C 19,4 C 78 % 1019,6 hPa 0,0 l/m 0 min 0 min 0 W/m 0,0 km/h (0 Bft) 93,62 %
03.08.2018 04:58 20,3 C 18,3 C 18,9 C 78 % 1019,5 hPa 0,0 l/m 0 min 0 min 0 W/m 0,0 km/h (0 Bft) 97,83 %
03.08.2018 05:00 20,3 C 18,3 C 18,9 C 78 % 1019,5 hPa 0,0 l/m 0 min 0 min 0 W/m 0,0 km/h (0 Bft) 97,87 %
03.08.2018 05:02 20,3 C 18,3 C 18,9 C 78 % 1019,5 hPa 0,0 l/m 0 min 0 min 0 W/m 2,3 km/h (1 Bft) 97,87 %
03.08.2018 05:04 20,2 C 18,3 C 18,9 C 78 % 1019,6 hPa 0,0 l/m 0 min 0 min 0 W/m 4,5 km/h (1 Bft) 93,62 %
03.08.2018 05:06 20,2 C 18,3 C 18,9 C 78 % 1019,6 hPa 0,0 l/m 0 min 0 min 0 W/m 2,3 km/h (1 Bft) 97,87 %
03.08.2018 05:08 20,1 C 18,3 C 18,9 C 78 % 1019,6 hPa 0,0 l/m 0 min 0 min 0 W/m 0,0 km/h (0 Bft) 95,74 %
03.08.2018 05:10 20,1 C 18,3 C 18,9 C 78 % 1019,6 hPa 0,0 l/m 0 min 0 min 0 W/m 0,0 km/h (0 Bft) 95,65 %
03.08.2018 05:12 20,1 C 18,3 C 18,9 C 79 % 1019,6 hPa 0,0 l/m 0 min 0 min 0 W/m 0,0 km/h (0 Bft) 95,74 %
03.08.2018 05:14 20,0 C 18,3 C 18,9 C 79 % 1019,6 hPa 0,0 l/m 0 min 0 min 0 W/m 2,3 km/h (1 Bft) 95,74 %
03.08.2018 05:16 20,0 C 18,3 C 18,9 C 79 % 1019,6 hPa 0,0 l/m 0 min 0 min 0 W/m 0,0 km/h (0 Bft) 95,74 %
03.08.2018 05:18 19,9 C 18,3 C 18,9 C 79 % 1019,6 hPa 0,0 l/m 0 min 0 min 0 W/m 0,0 km/h (0 Bft) 95,74 %
03.08.2018 05:20 19,9 C 18,3 C 18,9 C 79 % 1019,6 hPa 0,0 l/m 0 min 0 min 0 W/m 0,0 km/h (0 Bft) 97,87 %
03.08.2018 05:22 19,9 C 18,3 C 18,9 C 79 % 1019,6 hPa 0,0 l/m 0 min 0 min 0 W/m 0,0 km/h (0 Bft) 97,83 %
03.08.2018 05:24 19,9 C 18,3 C 18,9 C 79 % 1019,6 hPa 0,0 l/m 0 min 0 min 0 W/m 2,3 km/h (1 Bft) 95,24 %
03.08.2018 05:26 19,8 C 18,3 C 18,9 C 79 % 1019,6 hPa 0,0 l/m 0 min 0 min 0 W/m 2,3 km/h (1 Bft) 97,87 %
03.08.2018 05:28 19,8 C 18,3 C 18,9 C 79 % 1019,6 hPa 0,0 l/m 0 min 0 min 0 W/m 0,0 km/h (0 Bft) 97,83 %
03.08.2018 05:30 19,8 C 18,3 C 18,9 C 79 % 1019,6 hPa 0,0 l/m 0 min 0 min 0 W/m 0,0 km/h (0 Bft) 97,87 %
03.08.2018 05:32 19,7 C 18,3 C 18,9 C 79 % 1019,6 hPa 0,0 l/m 0 min 0 min 0 W/m 0,0 km/h (0 Bft) 95,74 %
03.08.2018 05:34 19,7 C 17,8 C 18,9 C 79 % 1019,6 hPa 0,0 l/m 0 min 0 min 0 W/m 0,0 km/h (0 Bft) 97,87 %
03.08.2018 05:35 19,7 C 17,8 C 18,9 C 79 % 1019,6 hPa 0,0 l/m 0 min 0 min 0 W/m 0,0 km/h (0 Bft) 100,00 %
03.08.2018 05:40 19,6 C 17,8 C 18,9 C 80 % 1019,6 hPa 0,0 l/m 0 min 0 min 0 W/m 0,0 km/h (0 Bft) 100,00 %
03.08.2018 05:42 19,6 C 17,8 C 18,3 C 80 % 1019,6 hPa 0,0 l/m 0 min 0 min 0 W/m 0,0 km/h (0 Bft) 97,14 %
03.08.2018 05:44 19,6 C 17,8 C 18,3 C 80 % 1019,6 hPa 0,0 l/m 0 min 0 min 0 W/m 0,0 km/h (0 Bft) 97,87 %
03.08.2018 05:46 19,5 C 17,8 C 18,3 C 80 % 1019,6 hPa 0,0 l/m 0 min 0 min 0 W/m 0,0 km/h (0 Bft) 98,11 %
03.08.2018 05:48 19,5 C 17,8 C 18,3 C 80 % 1019,7 hPa 0,0 l/m 0 min 0 min 0 W/m 0,0 km/h (0 Bft) 100,00 %
03.08.2018 05:50 19,5 C 17,8 C 18,3 C 80 % 1019,6 hPa 0,0 l/m 0 min 0 min 0 W/m 0,0 km/h (0 Bft) 100,00 %
03.08.2018 05:52 19,4 C 17,8 C 18,3 C 81 % 1019,6 hPa 0,0 l/m 0 min 0 min 0 W/m 0,0 km/h (0 Bft) 97,87 %
03.08.2018 05:54 19,4 C 17,8 C 18,3 C 81 % 1019,6 hPa 0,0 l/m 0 min 0 min 0 W/m 0,0 km/h (0 Bft) 95,74 %
03.08.2018 05:56 19,4 C 17,8 C 18,3 C 81 % 1019,5 hPa 0,0 l/m 0 min 0 min 0 W/m 0,0 km/h (0 Bft) 97,62 %
03.08.2018 05:58 19,4 C 17,8 C 18,3 C 81 % 1019,6 hPa 0,0 l/m 0 min 0 min 0 W/m 0,0 km/h (0 Bft) 97,96 %
03.08.2018 06:00 19,4 C 17,8 C 18,3 C 81 % 1019,5 hPa 0,0 l/m 0 min 0 min 4 W/m 0,0 km/h (0 Bft) 97,96 %
03.08.2018 06:02 19,3 C 17,8 C 18,3 C 81 % 1019,6 hPa 0,0 l/m 0 min 0 min 5 W/m 0,0 km/h (0 Bft) 97,87 %
03.08.2018 06:04 19,3 C 17,8 C 18,3 C 81 % 1019,6 hPa 0,0 l/m 0 min 0 min 5 W/m 0,0 km/h (0 Bft) 97,62 %
03.08.2018 06:07 19,3 C 17,8 C 18,3 C 81 % 1019,6 hPa 0,0 l/m 0 min 0 min 6 W/m 0,0 km/h (0 Bft) 97,26 %
03.08.2018 06:08 19,3 C 17,8 C 18,3 C 81 % 1019,6 hPa 0,0 l/m 0 min 0 min 7 W/m 0,0 km/h (0 Bft) 100,00 %
03.08.2018 06:10 19,2 C 17,8 C 18,3 C 81 % 1019,6 hPa 0,0 l/m 0 min 0 min 7 W/m 0,0 km/h (0 Bft) 97,87 %
03.08.2018 06:12 19,2 C 17,8 C 18,3 C 81 % 1019,5 hPa 0,0 l/m 0 min 0 min 8 W/m 0,0 km/h (0 Bft) 97,87 %
03.08.2018 06:14 19,2 C 17,8 C 18,3 C 81 % 1019,6 hPa 0,0 l/m 0 min 0 min 9 W/m 0,0 km/h (0 Bft) 100,00 %
03.08.2018 06:16 19,2 C 17,8 C 18,3 C 81 % 1019,5 hPa 0,0 l/m 0 min 0 min 10 W/m 0,0 km/h (0 Bft) 100,00 %
03.08.2018 06:18 19,2 C 17,8 C 18,3 C 81 % 1019,5 hPa 0,0 l/m 0 min 0 min 11 W/m 0,0 km/h (0 Bft) 100,00 %
03.08.2018 06:20 19,2 C 17,8 C 18,3 C 82 % 1019,5 hPa 0,0 l/m 0 min 0 min 12 W/m 0,0 km/h (0 Bft) 97,87 %
03.08.2018 06:22 19,1 C 17,8 C 18,3 C 82 % 1019,4 hPa 0,0 l/m 0 min 0 min 12 W/m 0,0 km/h (0 Bft) 100,00 %
03.08.2018 06:24 19,1 C 17,8 C 18,3 C 82 % 1019,5 hPa 0,0 l/m 0 min 0 min 14 W/m 0,0 km/h (0 Bft) 100,00 %
03.08.2018 06:26 19,1 C 17,8 C 18,3 C 82 % 1019,5 hPa 0,0 l/m 0 min 0 min 14 W/m 0,0 km/h (0 Bft) 100,00 %
03.08.2018 06:28 19,1 C 17,8 C 18,3 C 82 % 1019,6 hPa 0,0 l/m 0 min 0 min 15 W/m 0,0 km/h (0 Bft) 97,87 %
03.08.2018 06:30 19,1 C 17,8 C 18,3 C 82 % 1019,6 hPa 0,0 l/m 0 min 0 min 16 W/m 0,0 km/h (0 Bft) 95,65 %
03.08.2018 06:32 19,1 C 17,8 C 18,3 C 82 % 1019,6 hPa 0,0 l/m 0 min 0 min 18 W/m 0,0 km/h (0 Bft) 100,00 %
03.08.2018 06:34 19,0 C 17,8 C 18,3 C 82 % 1019,6 hPa 0,0 l/m 0 min 0 min 18 W/m 0,0 km/h (0 Bft) 100,00 %
03.08.2018 06:36 19,0 C 17,8 C 18,3 C 82 % 1019,6 hPa 0,0 l/m 0 min 0 min 19 W/m 0,0 km/h (0 Bft) 100,00 %
03.08.2018 06:38 18,9 C 17,8 C 18,3 C 82 % 1019,5 hPa 0,0 l/m 0 min 0 min 19 W/m 0,0 km/h (0 Bft) 100,00 %
03.08.2018 06:40 18,9 C 17,8 C 18,3 C 82 % 1019,6 hPa 0,0 l/m 0 min 0 min 21 W/m 0,0 km/h (0 Bft) 100,00 %
03.08.2018 06:42 18,9 C 17,8 C 18,3 C 82 % 1019,6 hPa 0,0 l/m 0 min 0 min 22 W/m 0,0 km/h (0 Bft) 100,00 %
03.08.2018 06:44 18,9 C 17,8 C 18,3 C 82 % 1019,6 hPa 0,0 l/m 0 min 0 min 23 W/m 0,0 km/h (0 Bft) 100,00 %
03.08.2018 06:46 18,9 C 17,8 C 18,3 C 82 % 1019,6 hPa 0,0 l/m 0 min 0 min 24 W/m 0,0 km/h (0 Bft) 100,00 %
03.08.2018 06:48 18,9 C 17,8 C 18,3 C 82 % 1019,6 hPa 0,0 l/m 0 min 0 min 25 W/m 0,0 km/h (0 Bft) 100,00 %
03.08.2018 06:50 18,9 C 17,8 C 18,3 C 83 % 1019,7 hPa 0,0 l/m 0 min 0 min 26 W/m 0,0 km/h (0 Bft) 100,00 %
03.08.2018 06:52 18,8 C 17,8 C 18,3 C 82 % 1019,7 hPa 0,0 l/m 0 min 0 min 26 W/m 0,0 km/h (0 Bft) 97,87 %
03.08.2018 06:54 18,8 C 17,8 C 18,3 C 83 % 1019,7 hPa 0,0 l/m 0 min 0 min 27 W/m 4,5 km/h (1 Bft) 97,83 %
03.08.2018 06:56 18,8 C 17,8 C 18,3 C 82 % 1019,7 hPa 0,0 l/m 0 min 0 min 28 W/m 2,3 km/h (1 Bft) 100,00 %
03.08.2018 06:58 18,8 C 17,8 C 18,3 C 82 % 1019,8 hPa 0,0 l/m 0 min 0 min 30 W/m 0,0 km/h (0 Bft) 97,87 %
03.08.2018 07:00 18,8 C 17,8 C 18,3 C 82 % 1019,8 hPa 0,0 l/m 0 min 0 min 30 W/m 2,3 km/h (1 Bft) 97,87 %
03.08.2018 07:02 18,8 C 18,3 C 18,3 C 82 % 1019,8 hPa 0,0 l/m 0 min 0 min 32 W/m 0,0 km/h (0 Bft) 91,49 %
03.08.2018 07:04 18,8 C 18,3 C 18,3 C 82 % 1019,7 hPa 0,0 l/m 0 min 0 min 32 W/m 0,0 km/h (0 Bft) 97,87 %
03.08.2018 07:06 18,8 C 18,3 C 18,3 C 83 % 1019,8 hPa 0,0 l/m 0 min 0 min 33 W/m 0,0 km/h (0 Bft) 95,65 %
03.08.2018 07:08 18,8 C 18,3 C 18,3 C 83 % 1019,7 hPa 0,0 l/m 0 min 0 min 33 W/m 0,0 km/h (0 Bft) 95,74 %
03.08.2018 07:10 18,8 C 18,3 C 18,3 C 83 % 1019,7 hPa 0,0 l/m 0 min 0 min 34 W/m 0,0 km/h (0 Bft) 93,62 %
03.08.2018 07:12 18,8 C 18,3 C 18,3 C 83 % 1019,7 hPa 0,0 l/m 0 min 0 min 35 W/m 0,0 km/h (0 Bft) 95,74 %
03.08.2018 07:14 18,7 C 18,3 C 18,3 C 83 % 1019,7 hPa 0,0 l/m 0 min 0 min 35 W/m 0,0 km/h (0 Bft) 95,74 %
03.08.2018 07:16 18,7 C 18,3 C 18,3 C 83 % 1019,7 hPa 0,0 l/m 0 min 0 min 37 W/m 2,3 km/h (1 Bft) 93,62 %
03.08.2018 07:18 18,7 C 18,3 C 18,3 C 83 % 1019,8 hPa 0,0 l/m 0 min 0 min 38 W/m 2,3 km/h (1 Bft) 93,48 %
03.08.2018 07:20 18,7 C 18,3 C 18,9 C 83 % 1019,8 hPa 0,0 l/m 0 min 0 min 39 W/m 2,3 km/h (1 Bft) 95,74 %
03.08.2018 07:22 18,7 C 18,3 C 18,9 C 83 % 1019,8 hPa 0,0 l/m 0 min 0 min 39 W/m 2,3 km/h (1 Bft) 95,74 %
03.08.2018 07:24 18,7 C 18,9 C 18,9 C 83 % 1019,8 hPa 0,0 l/m 0 min 0 min 40 W/m 0,0 km/h (0 Bft) 95,74 %
03.08.2018 07:26 18,7 C 18,9 C 18,9 C 83 % 1019,8 hPa 0,0 l/m 0 min 0 min 40 W/m 0,0 km/h (0 Bft) 95,74 %
03.08.2018 07:28 18,8 C 18,9 C 18,9 C 84 % 1019,8 hPa 0,0 l/m 0 min 0 min 42 W/m 0,0 km/h (0 Bft) 93,48 %
03.08.2018 07:30 18,8 C 18,9 C 18,9 C 84 % 1019,8 hPa 0,0 l/m 0 min 0 min 42 W/m 0,0 km/h (0 Bft) 95,74 %
03.08.2018 07:32 18,8 C 18,9 C 18,9 C 84 % 1019,8 hPa 0,0 l/m 0 min 0 min 43 W/m 0,0 km/h (0 Bft) 95,74 %
03.08.2018 07:34 18,8 C 18,9 C 18,9 C 84 % 1019,8 hPa 0,0 l/m 0 min 0 min 44 W/m 0,0 km/h (0 Bft) 91,49 %
03.08.2018 07:36 18,8 C 18,9 C 18,9 C 84 % 1019,7 hPa 0,0 l/m 0 min 0 min 44 W/m 0,0 km/h (0 Bft) 97,87 %
03.08.2018 07:38 18,8 C 19,4 C 18,9 C 84 % 1019,7 hPa 0,0 l/m 0 min 0 min 46 W/m 0,0 km/h (0 Bft) 95,74 %
03.08.2018 07:40 18,8 C 19,4 C 18,9 C 84 % 1019,7 hPa 0,0 l/m 0 min 0 min 46 W/m 0,0 km/h (0 Bft) 95,65 %
03.08.2018 07:42 18,8 C 19,4 C 18,9 C 84 % 1019,7 hPa 0,0 l/m 0 min 0 min 47 W/m 2,3 km/h (1 Bft) 95,74 %
03.08.2018 07:44 18,8 C 19,4 C 18,9 C 84 % 1019,7 hPa 0,0 l/m 0 min 0 min 47 W/m 2,3 km/h (1 Bft) 93,62 %
03.08.2018 07:46 18,9 C 19,4 C 18,9 C 84 % 1019,7 hPa 0,0 l/m 0 min 0 min 48 W/m 0,0 km/h (0 Bft) 95,74 %
03.08.2018 07:48 18,9 C 19,4 C 18,9 C 85 % 1019,7 hPa 0,0 l/m 0 min 0 min 49 W/m 2,3 km/h (1 Bft) 95,74 %
03.08.2018 07:50 18,9 C 19,4 C 18,9 C 85 % 1019,7 hPa 0,0 l/m 0 min 0 min 49 W/m 2,3 km/h (1 Bft) 95,74 %
03.08.2018 07:52 18,9 C 19,4 C 18,9 C 85 % 1019,7 hPa 0,0 l/m 0 min 0 min 49 W/m 0,0 km/h (0 Bft) 97,83 %
03.08.2018 07:54 18,9 C 19,4 C 19,4 C 85 % 1019,8 hPa 0,0 l/m 0 min 0 min 50 W/m 2,3 km/h (1 Bft) 95,74 %
03.08.2018 07:56 18,9 C 20,0 C 19,4 C 85 % 1019,7 hPa 0,0 l/m 0 min 0 min 51 W/m 2,3 km/h (1 Bft) 100,00 %
03.08.2018 07:58 19,0 C 20,0 C 19,4 C 85 % 1019,8 hPa 0,0 l/m 0 min 0 min 51 W/m 4,5 km/h (1 Bft) 97,87 %
03.08.2018 08:00 19,0 C 20,0 C 19,4 C 85 % 1019,8 hPa 0,0 l/m 0 min 0 min 53 W/m 0,0 km/h (0 Bft) 100,00 %
03.08.2018 08:02 19,1 C 20,0 C 19,4 C 85 % 1019,8 hPa 0,0 l/m 0 min 0 min 53 W/m 2,3 km/h (1 Bft) 97,87 %
03.08.2018 08:04 19,1 C 20,0 C 19,4 C 85 % 1019,8 hPa 0,0 l/m 0 min 0 min 53 W/m 0,0 km/h (0 Bft) 97,83 %
03.08.2018 08:06 19,1 C 20,0 C 19,4 C 85 % 1019,7 hPa 0,0 l/m 0 min 0 min 54 W/m 2,3 km/h (1 Bft) 100,00 %
03.08.2018 08:08 19,1 C 20,6 C 19,4 C 85 % 1019,7 hPa 0,0 l/m 0 min 0 min 54 W/m 0,0 km/h (0 Bft) 97,87 %
03.08.2018 08:10 19,2 C 20,6 C 20,0 C 85 % 1019,7 hPa 0,0 l/m 0 min 0 min 54 W/m 2,3 km/h (1 Bft) 100,00 %
03.08.2018 08:12 19,2 C 20,6 C 20,0 C 85 % 1019,8 hPa 0,0 l/m 0 min 0 min 55 W/m 4,5 km/h (1 Bft) 100,00 %
03.08.2018 08:14 19,3 C 20,6 C 20,0 C 84 % 1019,8 hPa 0,0 l/m 0 min 0 min 56 W/m 4,5 km/h (1 Bft) 100,00 %
03.08.2018 08:16 19,3 C 20,6 C 20,0 C 84 % 1019,8 hPa 0,0 l/m 0 min 0 min 56 W/m 2,3 km/h (1 Bft) 100,00 %
03.08.2018 08:18 19,3 C 20,6 C 20,0 C 84 % 1019,8 hPa 0,0 l/m 0 min 0 min 57 W/m 2,3 km/h (1 Bft) 100,00 %
03.08.2018 08:20 19,4 C 20,6 C 20,0 C 84 % 1019,8 hPa 0,0 l/m 0 min 0 min 58 W/m 4,5 km/h (1 Bft) 100,00 %
03.08.2018 08:22 19,4 C 21,1 C 20,0 C 84 % 1019,8 hPa 0,0 l/m 0 min 0 min 58 W/m 2,3 km/h (1 Bft) 100,00 %
03.08.2018 08:24 19,5 C 21,1 C 20,0 C 84 % 1019,8 hPa 0,0 l/m 0 min 0 min 60 W/m 4,5 km/h (1 Bft) 97,87 %
03.08.2018 08:26 19,5 C 21,1 C 20,0 C 84 % 1019,7 hPa 0,0 l/m 0 min 0 min 60 W/m 4,5 km/h (1 Bft) 100,00 %
03.08.2018 08:28 19,6 C 21,1 C 20,0 C 84 % 1019,8 hPa 0,0 l/m 0 min 0 min 61 W/m 4,5 km/h (1 Bft) 100,00 %
03.08.2018 08:30 19,6 C 21,1 C 20,0 C 84 % 1019,7 hPa 0,0 l/m 0 min 0 min 62 W/m 2,3 km/h (1 Bft) 100,00 %
03.08.2018 08:32 19,7 C 21,1 C 20,0 C 84 % 1019,7 hPa 0,0 l/m 0 min 0 min 62 W/m 4,5 km/h (1 Bft) 100,00 %
03.08.2018 08:34 19,7 C 21,1 C 20,0 C 84 % 1019,7 hPa 0,0 l/m 0 min 0 min 63 W/m 4,5 km/h (1 Bft) 100,00 %
03.08.2018 08:36 19,8 C 21,7 C 20,6 C 84 % 1019,7 hPa 0,0 l/m 0 min 0 min 65 W/m 6,8 km/h (2 Bft) 100,00 %
03.08.2018 08:38 19,8 C 21,7 C 20,6 C 84 % 1019,7 hPa 0,0 l/m 0 min 0 min 66 W/m 4,5 km/h (1 Bft) 100,00 %
03.08.2018 08:40 19,8 C 21,7 C 20,6 C 83 % 1019,7 hPa 0,0 l/m 0 min 0 min 66 W/m 6,8 km/h (2 Bft) 100,00 %
03.08.2018 08:42 19,9 C 22,2 C 21,1 C 83 % 1019,8 hPa 0,0 l/m 0 min 0 min 67 W/m 2,3 km/h (1 Bft) 100,00 %
03.08.2018 08:44 20,0 C 22,2 C 21,1 C 83 % 1019,8 hPa 0,0 l/m 0 min 0 min 69 W/m 4,5 km/h (1 Bft) 97,87 %
03.08.2018 08:46 20,1 C 22,2 C 21,1 C 83 % 1019,9 hPa 0,0 l/m 0 min 0 min 70 W/m 6,8 km/h (2 Bft) 97,87 %
03.08.2018 08:48 20,1 C 22,2 C 21,1 C 83 % 1019,9 hPa 0,0 l/m 0 min 0 min 124 W/m 4,5 km/h (1 Bft) 100,00 %
03.08.2018 08:50 20,2 C 22,8 C 21,1 C 82 % 1019,9 hPa 0,0 l/m 0 min 0 min 192 W/m 6,8 km/h (2 Bft) 100,00 %
03.08.2018 08:52 20,3 C 22,8 C 21,1 C 82 % 1019,9 hPa 0,0 l/m 2 min 0 min 262 W/m 2,3 km/h (1 Bft) 97,83 %
03.08.2018 08:54 20,3 C 23,3 C 21,7 C 82 % 1019,9 hPa 0,0 l/m 2 min 0 min 300 W/m 4,5 km/h (1 Bft) 95,74 %
03.08.2018 08:56 20,4 C 23,3 C 21,7 C 82 % 1019,9 hPa 0,0 l/m 2 min 0 min 301 W/m 2,3 km/h (1 Bft) 97,87 %
03.08.2018 08:58 20,5 C 23,3 C 21,7 C 82 % 1019,9 hPa 0,0 l/m 2 min 0 min 302 W/m 2,3 km/h (1 Bft) 97,87 %
03.08.2018 09:00 20,6 C 23,3 C 21,7 C 82 % 1019,9 hPa 0,0 l/m 2 min 0 min 303 W/m 4,5 km/h (1 Bft) 97,87 %
03.08.2018 09:02 20,7 C 23,3 C 21,7 C 81 % 1019,9 hPa 0,0 l/m 2 min 0 min 304 W/m 2,3 km/h (1 Bft) 97,83 %
03.08.2018 09:04 20,8 C 23,3 C 21,7 C 81 % 1019,9 hPa 0,0 l/m 2 min 0 min 305 W/m 2,3 km/h (1 Bft) 97,87 %
03.08.2018 09:06 20,9 C 23,9 C 21,7 C 81 % 1019,9 hPa 0,0 l/m 2 min 0 min 330 W/m 2,3 km/h (1 Bft) 95,74 %
03.08.2018 09:08 21,0 C 23,9 C 21,7 C 81 % 1019,9 hPa 0,0 l/m 2 min 0 min 336 W/m 4,5 km/h (1 Bft) 95,74 %
03.08.2018 09:10 21,1 C 23,9 C 21,7 C 81 % 1019,8 hPa 0,0 l/m 2 min 0 min 340 W/m 2,3 km/h (1 Bft) 97,87 %
03.08.2018 09:12 21,2 C 24,4 C 21,7 C 80 % 1019,9 hPa 0,0 l/m 2 min 0 min 347 W/m 0,0 km/h (0 Bft) 97,87 %
03.08.2018 09:14 21,3 C 24,4 C 22,2 C 80 % 1019,9 hPa 0,0 l/m 2 min 0 min 353 W/m 0,0 km/h (0 Bft) 97,83 %
03.08.2018 09:16 21,4 C 24,4 C 22,2 C 79 % 1019,8 hPa 0,0 l/m 2 min 0 min 358 W/m 0,0 km/h (0 Bft) 97,87 %
03.08.2018 09:18 21,6 C 24,4 C 22,2 C 79 % 1019,8 hPa 0,0 l/m 2 min 0 min 362 W/m 6,8 km/h (2 Bft) 95,74 %
03.08.2018 09:20 21,7 C 24,4 C 22,2 C 79 % 1019,8 hPa 0,0 l/m 2 min 0 min 368 W/m 2,3 km/h (1 Bft) 97,87 %
03.08.2018 09:22 21,8 C 24,4 C 22,2 C 79 % 1019,8 hPa 0,0 l/m 2 min 0 min 373 W/m 0,0 km/h (0 Bft) 97,92 %
03.08.2018 09:24 21,9 C 25,0 C 22,2 C 78 % 1019,8 hPa 0,0 l/m 2 min 0 min 378 W/m 0,0 km/h (0 Bft) 97,87 %
03.08.2018 09:26 22,0 C 25,0 C 22,2 C 78 % 1019,8 hPa 0,0 l/m 2 min 0 min 382 W/m 0,0 km/h (0 Bft) 95,65 %
03.08.2018 09:28 22,1 C 25,0 C 22,2 C 78 % 1019,8 hPa 0,0 l/m 2 min 0 min 387 W/m 2,3 km/h (1 Bft) 97,87 %
03.08.2018 09:30 22,2 C 25,0 C 22,2 C 77 % 1019,8 hPa 0,0 l/m 2 min 0 min 393 W/m 4,5 km/h (1 Bft) 97,87 %
03.08.2018 09:32 22,3 C 25,0 C 22,2 C 77 % 1019,8 hPa 0,0 l/m 2 min 0 min 398 W/m 2,3 km/h (1 Bft) 97,87 %
03.08.2018 09:34 22,5 C 25,0 C 22,8 C 77 % 1019,7 hPa 0,0 l/m 2 min 0 min 401 W/m 4,5 km/h (1 Bft) 97,87 %
03.08.2018 09:36 22,6 C 25,0 C 22,8 C 76 % 1019,7 hPa 0,0 l/m 2 min 0 min 407 W/m 4,5 km/h (1 Bft) 97,87 %
03.08.2018 09:38 22,7 C 25,0 C 22,8 C 76 % 1019,8 hPa 0,0 l/m 2 min 0 min 413 W/m 4,5 km/h (1 Bft) 95,65 %
03.08.2018 09:40 22,8 C 25,0 C 22,8 C 76 % 1019,8 hPa 0,0 l/m 2 min 0 min 419 W/m 4,5 km/h (1 Bft) 95,74 %
03.08.2018 09:42 22,9 C 25,0 C 22,8 C 75 % 1019,8 hPa 0,0 l/m 2 min 0 min 423 W/m 2,3 km/h (1 Bft) 93,62 %
03.08.2018 09:44 23,0 C 25,6 C 22,8 C 76 % 1019,8 hPa 0,0 l/m 2 min 0 min 428 W/m 2,3 km/h (1 Bft) 93,62 %
03.08.2018 09:46 23,1 C 26,1 C 22,8 C 76 % 1019,8 hPa 0,0 l/m 2 min 0 min 432 W/m 2,3 km/h (1 Bft) 95,74 %
03.08.2018 09:48 23,2 C 26,1 C 22,8 C 75 % 1019,8 hPa 0,0 l/m 2 min 0 min 438 W/m 4,5 km/h (1 Bft) 95,74 %
03.08.2018 09:50 23,3 C 26,1 C 22,8 C 75 % 1019,8 hPa 0,0 l/m 2 min 0 min 443 W/m 4,5 km/h (1 Bft) 97,83 %
03.08.2018 09:52 23,4 C 26,1 C 23,3 C 74 % 1019,8 hPa 0,0 l/m 2 min 0 min 448 W/m 4,5 km/h (1 Bft) 93,62 %
03.08.2018 09:54 23,5 C 26,7 C 22,8 C 73 % 1019,8 hPa 0,0 l/m 2 min 0 min 452 W/m 2,3 km/h (1 Bft) 93,62 %
03.08.2018 09:56 23,6 C 27,2 C 22,8 C 73 % 1019,8 hPa 0,0 l/m 2 min 0 min 459 W/m 4,5 km/h (1 Bft) 95,74 %
03.08.2018 09:58 23,7 C 28,9 C 22,8 C 72 % 1019,8 hPa 0,0 l/m 2 min 0 min 464 W/m 2,3 km/h (1 Bft) 95,74 %
03.08.2018 10:00 23,8 C 29,4 C 23,3 C 72 % 1019,8 hPa 0,0 l/m 2 min 0 min 469 W/m 2,3 km/h (1 Bft) 97,83 %
03.08.2018 10:02 24,0 C 30,6 C 23,3 C 72 % 1019,7 hPa 0,0 l/m 2 min 0 min 474 W/m 6,8 km/h (2 Bft) 95,74 %
03.08.2018 10:04 24,1 C 30,6 C 23,3 C 72 % 1019,8 hPa 0,0 l/m 2 min 0 min 476 W/m 4,5 km/h (1 Bft) 93,62 %
03.08.2018 10:06 24,3 C 30,0 C 23,3 C 72 % 1019,7 hPa 0,0 l/m 2 min 0 min 480 W/m 2,3 km/h (1 Bft) 95,74 %
03.08.2018 10:08 24,4 C 29,4 C 23,3 C 72 % 1019,7 hPa 0,0 l/m 2 min 0 min 485 W/m 6,8 km/h (2 Bft) 95,74 %
03.08.2018 10:10 24,5 C 28,9 C 23,3 C 72 % 1019,7 hPa 0,0 l/m 2 min 0 min 491 W/m 6,8 km/h (2 Bft) 93,62 %
03.08.2018 10:12 24,7 C 28,3 C 23,3 C 71 % 1019,7 hPa 0,0 l/m 2 min 0 min 496 W/m 2,3 km/h (1 Bft) 95,65 %
03.08.2018 10:14 24,8 C 28,3 C 23,9 C 72 % 1019,7 hPa 0,0 l/m 2 min 0 min 501 W/m 0,0 km/h (0 Bft) 95,74 %
03.08.2018 10:16 25,0 C 28,3 C 23,9 C 71 % 1019,7 hPa 0,0 l/m 2 min 0 min 504 W/m 4,5 km/h (1 Bft) 95,74 %
03.08.2018 10:18 25,1 C 28,3 C 23,9 C 70 % 1019,7 hPa 0,0 l/m 2 min 0 min 509 W/m 4,5 km/h (1 Bft) 93,62 %
03.08.2018 10:20 25,2 C 28,9 C 23,9 C 70 % 1019,7 hPa 0,0 l/m 2 min 0 min 514 W/m 4,5 km/h (1 Bft) 95,74 %
03.08.2018 10:22 25,4 C 28,3 C 23,9 C 69 % 1019,7 hPa 0,0 l/m 2 min 0 min 519 W/m 6,8 km/h (2 Bft) 93,62 %
03.08.2018 10:24 25,5 C 28,3 C 23,9 C 68 % 1019,7 hPa 0,0 l/m 2 min 0 min 522 W/m 4,5 km/h (1 Bft) 97,83 %
03.08.2018 10:26 25,7 C 28,9 C 24,4 C 69 % 1019,7 hPa 0,0 l/m 2 min 0 min 526 W/m 4,5 km/h (1 Bft) 97,87 %
03.08.2018 10:28 25,8 C 28,9 C 24,4 C 68 % 1019,6 hPa 0,0 l/m 2 min 0 min 532 W/m 4,5 km/h (1 Bft) 95,74 %
03.08.2018 10:30 25,9 C 30,0 C 24,4 C 67 % 1019,6 hPa 0,0 l/m 2 min 0 min 537 W/m 2,3 km/h (1 Bft) 97,87 %
03.08.2018 10:32 26,1 C 30,6 C 24,4 C 68 % 1019,6 hPa 0,0 l/m 2 min 0 min 541 W/m 9,0 km/h (2 Bft) 97,87 %
03.08.2018 10:34 26,2 C 30,0 C 25,0 C 67 % 1019,6 hPa 0,0 l/m 2 min 0 min 545 W/m 4,5 km/h (1 Bft) 97,87 %
03.08.2018 10:36 26,3 C 29,4 C 25,0 C 65 % 1019,5 hPa 0,0 l/m 2 min 0 min 550 W/m 4,5 km/h (1 Bft) 95,65 %
03.08.2018 10:38 26,4 C 31,7 C 25,0 C 66 % 1019,5 hPa 0,0 l/m 2 min 0 min 555 W/m 4,5 km/h (1 Bft) 97,87 %
03.08.2018 10:40 26,5 C 33,9 C 25,0 C 67 % 1019,5 hPa 0,0 l/m 2 min 0 min 558 W/m 6,8 km/h (2 Bft) 97,87 %
03.08.2018 10:42 26,6 C 35,6 C 25,0 C 66 % 1019,5 hPa 0,0 l/m 2 min 0 min 560 W/m 6,8 km/h (2 Bft) 97,87 %
03.08.2018 10:44 26,7 C 35,0 C 25,6 C 65 % 1019,5 hPa 0,0 l/m 2 min 0 min 562 W/m 6,8 km/h (2 Bft) 97,87 %
03.08.2018 10:46 26,8 C 36,1 C 25,6 C 66 % 1019,5 hPa 0,0 l/m 2 min 0 min 566 W/m 6,8 km/h (2 Bft) 97,87 %
03.08.2018 10:48 26,9 C 35,0 C 25,6 C 64 % 1019,5 hPa 0,0 l/m 2 min 0 min 572 W/m 9,0 km/h (2 Bft) 95,65 %
03.08.2018 10:50 27,1 C 36,7 C 25,6 C 65 % 1019,5 hPa 0,0 l/m 2 min 0 min 577 W/m 9,0 km/h (2 Bft) 95,74 %
03.08.2018 10:52 27,2 C 37,2 C 25,6 C 64 % 1019,5 hPa 0,0 l/m 2 min 0 min 582 W/m 2,3 km/h (1 Bft) 97,87 %
03.08.2018 10:54 27,3 C 37,8 C 25,6 C 64 % 1019,5 hPa 0,0 l/m 2 min 0 min 586 W/m 4,5 km/h (1 Bft) 100,00 %
03.08.2018 10:56 27,5 C 38,3 C 25,6 C 64 % 1019,5 hPa 0,0 l/m 2 min 0 min 590 W/m 4,5 km/h (1 Bft) 100,00 %
03.08.2018 10:58 27,7 C 38,3 C 25,6 C 65 % 1019,4 hPa 0,0 l/m 2 min 0 min 595 W/m 4,5 km/h (1 Bft) 100,00 %
03.08.2018 11:00 27,9 C 37,2 C 25,6 C 63 % 1019,4 hPa 0,0 l/m 2 min 0 min 600 W/m 6,8 km/h (2 Bft) 100,00 %
03.08.2018 11:02 28,1 C 37,8 C 25,6 C 63 % 1019,4 hPa 0,0 l/m 2 min 0 min 603 W/m 4,5 km/h (1 Bft) 100,00 %
03.08.2018 11:04 28,3 C 37,8 C 26,1 C 62 % 1019,3 hPa 0,0 l/m 2 min 0 min 609 W/m 6,8 km/h (2 Bft) 100,00 %
03.08.2018 11:06 28,5 C 37,8 C 26,1 C 61 % 1019,4 hPa 0,0 l/m 2 min 0 min 612 W/m 4,5 km/h (1 Bft) 97,92 %
03.08.2018 11:08 28,7 C 38,3 C 26,1 C 61 % 1019,4 hPa 0,0 l/m 2 min 0 min 611 W/m 9,0 km/h (2 Bft) 100,00 %
03.08.2018 11:10 28,9 C 37,8 C 26,1 C 59 % 1019,4 hPa 0,0 l/m 2 min 0 min 618 W/m 6,8 km/h (2 Bft) 97,83 %
03.08.2018 11:12 29,1 C 37,8 C 26,7 C 59 % 1019,4 hPa 0,0 l/m 2 min 0 min 622 W/m 4,5 km/h (1 Bft) 100,00 %
03.08.2018 11:14 29,3 C 38,9 C 26,1 C 61 % 1019,2 hPa 0,0 l/m 2 min 0 min 626 W/m 4,5 km/h (1 Bft) 100,00 %
03.08.2018 11:16 29,5 C 40,0 C 26,1 C 60 % 1019,1 hPa 0,0 l/m 2 min 0 min 630 W/m 4,5 km/h (1 Bft) 100,00 %
03.08.2018 11:18 29,7 C 39,4 C 26,1 C 59 % 1019,2 hPa 0,0 l/m 2 min 0 min 634 W/m 4,5 km/h (1 Bft) 100,00 %
03.08.2018 11:20 29,9 C 40,0 C 26,1 C 59 % 1019,2 hPa 0,0 l/m 2 min 0 min 640 W/m 6,8 km/h (2 Bft) 100,00 %
03.08.2018 11:22 30,1 C 40,0 C 26,1 C 59 % 1019,1 hPa 0,0 l/m 2 min 0 min 644 W/m 4,5 km/h (1 Bft) 100,00 %
03.08.2018 11:24 30,3 C 40,6 C 26,7 C 60 % 1019,1 hPa 0,0 l/m 2 min 0 min 649 W/m 4,5 km/h (1 Bft) 97,87 %
03.08.2018 11:26 30,5 C 40,0 C 26,7 C 58 % 1019,1 hPa 0,0 l/m 2 min 0 min 651 W/m 4,5 km/h (1 Bft) 97,87 %
03.08.2018 11:28 30,7 C 40,6 C 26,7 C 59 % 1019,1 hPa 0,0 l/m 2 min 0 min 653 W/m 2,3 km/h (1 Bft) 100,00 %
03.08.2018 11:30 30,9 C 41,1 C 26,1 C 59 % 1019,1 hPa 0,0 l/m 2 min 0 min 655 W/m 6,8 km/h (2 Bft) 100,00 %
03.08.2018 11:32 31,0 C 38,9 C 26,7 C 55 % 1019,1 hPa 0,0 l/m 2 min 0 min 661 W/m 6,8 km/h (2 Bft) 100,00 %
03.08.2018 11:34 31,2 C 40,0 C 26,7 C 56 % 1019,1 hPa 0,0 l/m 2 min 0 min 663 W/m 4,5 km/h (1 Bft) 100,00 %
03.08.2018 11:36 31,3 C 40,6 C 26,7 C 55 % 1019,2 hPa 0,0 l/m 2 min 0 min 668 W/m 6,8 km/h (2 Bft) 100,00 %
03.08.2018 11:38 31,6 C 41,7 C 26,7 C 59 % 1019,1 hPa 0,0 l/m 2 min 0 min 671 W/m 6,8 km/h (2 Bft) 100,00 %
03.08.2018 11:40 31,7 C 41,7 C 26,7 C 56 % 1019,2 hPa 0,0 l/m 2 min 0 min 676 W/m 4,5 km/h (1 Bft) 97,87 %
03.08.2018 11:42 31,8 C 41,7 C 27,2 C 55 % 1019,1 hPa 0,0 l/m 2 min 0 min 676 W/m 4,5 km/h (1 Bft) 100,00 %
03.08.2018 11:44 32,0 C 40,6 C 27,2 C 55 % 1019,1 hPa 0,0 l/m 2 min 0 min 680 W/m 6,8 km/h (2 Bft) 100,00 %
03.08.2018 11:46 32,1 C 39,4 C 27,8 C 53 % 1019,1 hPa 0,0 l/m 2 min 0 min 684 W/m 9,0 km/h (2 Bft) 100,00 %
03.08.2018 11:48 32,3 C 39,4 C 27,8 C 52 % 1019,1 hPa 0,0 l/m 2 min 0 min 683 W/m 6,8 km/h (2 Bft) 100,00 %
03.08.2018 11:50 32,4 C 40,0 C 27,8 C 53 % 1019,1 hPa 0,0 l/m 2 min 0 min 687 W/m 9,0 km/h (2 Bft) 100,00 %
03.08.2018 11:52 32,5 C 40,0 C 27,8 C 52 % 1019,2 hPa 0,0 l/m 2 min 0 min 691 W/m 6,8 km/h (2 Bft) 100,00 %
03.08.2018 11:54 32,6 C 39,4 C 27,8 C 51 % 1019,1 hPa 0,0 l/m 2 min 0 min 693 W/m 9,0 km/h (2 Bft) 97,87 %
03.08.2018 11:56 32,7 C 38,9 C 27,8 C 51 % 1019,0 hPa 0,0 l/m 2 min 0 min 695 W/m 9,0 km/h (2 Bft) 100,00 %
03.08.2018 11:58 32,7 C 40,0 C 27,8 C 51 % 1019,0 hPa 0,0 l/m 2 min 0 min 696 W/m 6,8 km/h (2 Bft) 100,00 %
03.08.2018 12:00 32,8 C 40,6 C 27,8 C 52 % 1019,0 hPa 0,0 l/m 2 min 0 min 700 W/m 4,5 km/h (1 Bft) 100,00 %
03.08.2018 12:02 32,9 C 40,0 C 28,3 C 50 % 1019,0 hPa 0,0 l/m 2 min 0 min 702 W/m 6,8 km/h (2 Bft) 100,00 %
03.08.2018 12:04 33,0 C 41,1 C 27,8 C 55 % 1018,9 hPa 0,0 l/m 2 min 0 min 706 W/m 4,5 km/h (1 Bft) 100,00 %
03.08.2018 12:08 33,1 C 41,1 C 28,3 C 51 % 1018,9 hPa 0,0 l/m 4 min 0 min 710 W/m 4,5 km/h (1 Bft) 100,00 %
03.08.2018 12:10 33,2 C 41,7 C 28,3 C 52 % 1018,8 hPa 0,0 l/m 2 min 0 min 716 W/m 9,0 km/h (2 Bft) 100,00 %
03.08.2018 12:12 33,3 C 41,1 C 28,3 C 51 % 1018,9 hPa 0,0 l/m 2 min 0 min 720 W/m 9,0 km/h (2 Bft) 100,00 %
03.08.2018 12:14 33,4 C 41,1 C 28,3 C 51 % 1018,8 hPa 0,0 l/m 2 min 0 min 720 W/m 4,5 km/h (1 Bft) 97,87 %
03.08.2018 12:16 33,4 C 41,7 C 28,3 C 50 % 1018,8 hPa 0,0 l/m 2 min 0 min 725 W/m 6,8 km/h (2 Bft) 97,87 %
03.08.2018 12:18 33,6 C 42,2 C 28,3 C 50 % 1018,9 hPa 0,0 l/m 2 min 0 min 728 W/m 6,8 km/h (2 Bft) 100,00 %
03.08.2018 12:20 33,6 C 42,8 C 28,3 C 51 % 1018,8 hPa 0,0 l/m 2 min 0 min 664 W/m 6,8 km/h (2 Bft) 100,00 %
03.08.2018 12:22 33,7 C 42,8 C 28,3 C 51 % 1018,7 hPa 0,0 l/m 2 min 0 min 520 W/m 6,8 km/h (2 Bft) 100,00 %
03.08.2018 12:24 33,8 C 43,3 C 28,3 C 51 % 1018,7 hPa 0,0 l/m 2 min 0 min 503 W/m 4,5 km/h (1 Bft) 97,14 %
03.08.2018 12:26 33,8 C 40,0 C 28,3 C 48 % 1018,7 hPa 0,0 l/m 2 min 0 min 419 W/m 6,8 km/h (2 Bft) 95,74 %
03.08.2018 12:28 33,9 C 41,1 C 28,3 C 50 % 1018,7 hPa 0,0 l/m 2 min 0 min 501 W/m 4,5 km/h (1 Bft) 97,87 %
03.08.2018 12:30 33,9 C 41,1 C 28,3 C 49 % 1018,7 hPa 0,0 l/m 2 min 0 min 502 W/m 4,5 km/h (1 Bft) 97,87 %
03.08.2018 12:32 34,1 C 41,7 C 28,3 C 49 % 1018,6 hPa 0,0 l/m 2 min 0 min 503 W/m 2,3 km/h (1 Bft) 98,00 %
03.08.2018 12:34 34,1 C 40,0 C 28,3 C 48 % 1018,6 hPa 0,0 l/m 2 min 0 min 504 W/m 9,0 km/h (2 Bft) 97,83 %
03.08.2018 12:36 34,2 C 39,4 C 28,9 C 48 % 1018,6 hPa 0,0 l/m 2 min 0 min 505 W/m 9,0 km/h (2 Bft) 95,74 %
03.08.2018 12:38 34,2 C 39,4 C 28,9 C 47 % 1018,6 hPa 0,0 l/m 2 min 0 min 506 W/m 9,0 km/h (2 Bft) 97,87 %
03.08.2018 12:40 34,3 C 38,9 C 29,4 C 47 % 1018,6 hPa 0,0 l/m 2 min 0 min 507 W/m 9,0 km/h (2 Bft) 97,87 %
03.08.2018 12:42 34,3 C 40,0 C 28,9 C 49 % 1018,6 hPa 0,0 l/m 2 min 0 min 508 W/m 4,5 km/h (1 Bft) 97,87 %
03.08.2018 12:44 34,4 C 41,7 C 28,9 C 49 % 1018,5 hPa 0,0 l/m 2 min 0 min 509 W/m 2,3 km/h (1 Bft) 95,74 %
03.08.2018 12:46 34,4 C 42,2 C 28,9 C 49 % 1018,5 hPa 0,0 l/m 2 min 0 min 510 W/m 4,5 km/h (1 Bft) 95,65 %
03.08.2018 12:48 34,4 C 42,8 C 28,9 C 49 % 1018,5 hPa 0,0 l/m 2 min 0 min 511 W/m 4,5 km/h (1 Bft) 93,62 %
03.08.2018 12:50 34,5 C 42,2 C 28,9 C 49 % 1018,5 hPa 0,0 l/m 2 min 0 min 512 W/m 2,3 km/h (1 Bft) 93,62 %
03.08.2018 12:52 34,5 C 42,2 C 28,9 C 49 % 1018,5 hPa 0,0 l/m 2 min 0 min 513 W/m 6,8 km/h (2 Bft) 95,74 %
03.08.2018 12:54 34,5 C 42,2 C 29,4 C 48 % 1018,5 hPa 0,0 l/m 2 min 0 min 517 W/m 6,8 km/h (2 Bft) 97,87 %
03.08.2018 12:56 34,6 C 42,2 C 29,4 C 49 % 1018,4 hPa 0,0 l/m 2 min 0 min 760 W/m 6,8 km/h (2 Bft) 97,87 %
03.08.2018 12:58 34,6 C 42,2 C 29,4 C 48 % 1018,4 hPa 0,0 l/m 2 min 0 min 768 W/m 2,3 km/h (1 Bft) 97,83 %
03.08.2018 13:00 34,6 C 40,0 C 29,4 C 47 % 1018,3 hPa 0,0 l/m 2 min 0 min 773 W/m 9,0 km/h (2 Bft) 95,74 %
03.08.2018 13:02 34,6 C 38,9 C 30,0 C 46 % 1018,4 hPa 0,0 l/m 2 min 0 min 771 W/m 13,5 km/h (3 Bft) 95,74 %
03.08.2018 13:04 34,7 C 38,3 C 29,4 C 46 % 1018,4 hPa 0,0 l/m 2 min 0 min 750 W/m 6,8 km/h (2 Bft) 100,00 %
03.08.2018 13:06 34,7 C 37,8 C 29,4 C 47 % 1018,4 hPa 0,0 l/m 2 min 0 min 715 W/m 6,8 km/h (2 Bft) 93,62 %
03.08.2018 13:08 34,7 C 37,2 C 29,4 C 47 % 1018,3 hPa 0,0 l/m 2 min 0 min 714 W/m 13,5 km/h (3 Bft) 95,74 %
03.08.2018 13:10 34,7 C 37,2 C 29,4 C 47 % 1018,3 hPa 0,0 l/m 2 min 0 min 766 W/m 13,5 km/h (3 Bft) 95,65 %
03.08.2018 13:12 34,7 C 37,2 C 29,4 C 45 % 1018,3 hPa 0,0 l/m 2 min 0 min 772 W/m 11,3 km/h (2 Bft) 95,74 %
03.08.2018 13:14 34,7 C 38,3 C 29,4 C 46 % 1018,3 hPa 0,0 l/m 2 min 0 min 775 W/m 9,0 km/h (2 Bft) 95,74 %
03.08.2018 13:16 34,8 C 40,0 C 29,4 C 49 % 1018,3 hPa 0,0 l/m 2 min 0 min 759 W/m 4,5 km/h (1 Bft) 93,62 %
03.08.2018 13:18 34,7 C 38,9 C 30,0 C 47 % 1018,3 hPa 0,0 l/m 2 min 0 min 731 W/m 9,0 km/h (2 Bft) 95,74 %
03.08.2018 13:20 34,7 C 38,9 C 30,0 C 45 % 1018,3 hPa 0,0 l/m 2 min 0 min 725 W/m 11,3 km/h (2 Bft) 95,74 %
03.08.2018 13:22 34,7 C 39,4 C 30,0 C 47 % 1018,3 hPa 0,0 l/m 2 min 0 min 750 W/m 6,8 km/h (2 Bft) 95,65 %
03.08.2018 13:24 34,7 C 38,9 C 30,6 C 45 % 1018,3 hPa 0,0 l/m 2 min 0 min 775 W/m 9,0 km/h (2 Bft) 93,62 %
03.08.2018 13:26 34,6 C 40,0 C 30,0 C 45 % 1018,2 hPa 0,0 l/m 2 min 0 min 776 W/m 6,8 km/h (2 Bft) 95,74 %
03.08.2018 13:28 34,6 C 40,6 C 30,0 C 45 % 1018,2 hPa 0,0 l/m 2 min 0 min 802 W/m 6,8 km/h (2 Bft) 95,74 %
03.08.2018 13:30 34,6 C 40,0 C 30,0 C 47 % 1018,2 hPa 0,0 l/m 2 min 0 min 792 W/m 6,8 km/h (2 Bft) 97,87 %
03.08.2018 13:32 34,6 C 37,8 C 30,0 C 46 % 1018,2 hPa 0,0 l/m 2 min 0 min 779 W/m 6,8 km/h (2 Bft) 97,92 %
03.08.2018 13:34 34,5 C 37,2 C 30,6 C 46 % 1018,2 hPa 0,0 l/m 2 min 0 min 786 W/m 9,0 km/h (2 Bft) 97,87 %
03.08.2018 13:36 34,5 C 37,2 C 30,6 C 47 % 1018,2 hPa 0,0 l/m 2 min 0 min 779 W/m 6,8 km/h (2 Bft) 95,74 %
03.08.2018 13:38 34,6 C 35,6 C 30,6 C 46 % 1018,1 hPa 0,0 l/m 2 min 0 min 787 W/m 11,3 km/h (2 Bft) 97,87 %
03.08.2018 13:40 34,6 C 35,0 C 30,6 C 47 % 1018,1 hPa 0,0 l/m 2 min 0 min 761 W/m 6,8 km/h (2 Bft) 97,87 %
03.08.2018 13:42 34,5 C 35,0 C 30,6 C 46 % 1018,1 hPa 0,0 l/m 2 min 0 min 779 W/m 4,5 km/h (1 Bft) 95,74 %
03.08.2018 13:44 34,5 C 35,0 C 30,6 C 49 % 1018,1 hPa 0,0 l/m 2 min 0 min 793 W/m 4,5 km/h (1 Bft) 97,92 %
03.08.2018 13:46 34,5 C 34,4 C 30,6 C 46 % 1018,1 hPa 0,0 l/m 2 min 0 min 800 W/m 11,3 km/h (2 Bft) 97,87 %
03.08.2018 13:48 34,5 C 34,4 C 31,1 C 47 % 1018,1 hPa 0,0 l/m 2 min 0 min 813 W/m 6,8 km/h (2 Bft) 97,87 %
03.08.2018 13:50 34,4 C 34,4 C 31,1 C 48 % 1018,0 hPa 0,0 l/m 2 min 0 min 816 W/m 6,8 km/h (2 Bft) 97,87 %
03.08.2018 13:52 34,4 C 34,4 C 31,1 C 47 % 1018,0 hPa 0,0 l/m 2 min 0 min 831 W/m 2,3 km/h (1 Bft) 97,87 %
03.08.2018 13:54 34,4 C 34,4 C 31,1 C 48 % 1018,0 hPa 0,0 l/m 2 min 0 min 827 W/m 4,5 km/h (1 Bft) 97,87 %
03.08.2018 13:56 34,4 C 34,4 C 31,1 C 48 % 1018,1 hPa 0,0 l/m 2 min 0 min 826 W/m 4,5 km/h (1 Bft) 97,83 %
03.08.2018 13:58 34,4 C 33,9 C 31,1 C 46 % 1018,1 hPa 0,0 l/m 2 min 0 min 825 W/m 6,8 km/h (2 Bft) 97,87 %
03.08.2018 14:00 34,4 C 33,9 C 31,1 C 46 % 1018,1 hPa 0,0 l/m 2 min 0 min 823 W/m 9,0 km/h (2 Bft) 95,74 %
03.08.2018 14:02 34,4 C 33,9 C 31,1 C 47 % 1018,0 hPa 0,0 l/m 2 min 0 min 812 W/m 4,5 km/h (1 Bft) 97,87 %
03.08.2018 14:04 34,3 C 33,9 C 30,6 C 47 % 1018,0 hPa 0,0 l/m 2 min 0 min 781 W/m 4,5 km/h (1 Bft) 97,87 %
03.08.2018 14:06 34,3 C 33,3 C 30,6 C 46 % 1018,0 hPa 0,0 l/m 2 min 0 min 796 W/m 9,0 km/h (2 Bft) 97,87 %
03.08.2018 14:08 34,3 C 33,9 C 30,6 C 47 % 1018,0 hPa 0,0 l/m 2 min 0 min 807 W/m 4,5 km/h (1 Bft) 100,00 %
03.08.2018 14:10 34,3 C 33,3 C 30,6 C 45 % 1017,9 hPa 0,0 l/m 2 min 0 min 776 W/m 9,0 km/h (2 Bft) 100,00 %
03.08.2018 14:12 34,3 C 33,3 C 30,6 C 45 % 1017,8 hPa 0,0 l/m 2 min 0 min 800 W/m 4,5 km/h (1 Bft) 100,00 %
03.08.2018 14:14 34,2 C 33,3 C 30,6 C 46 % 1017,9 hPa 0,0 l/m 2 min 0 min 830 W/m 6,8 km/h (2 Bft) 100,00 %
03.08.2018 14:16 34,2 C 33,9 C 31,1 C 47 % 1017,8 hPa 0,0 l/m 2 min 0 min 831 W/m 6,8 km/h (2 Bft) 97,87 %
03.08.2018 14:18 34,2 C 33,9 C 31,1 C 46 % 1017,8 hPa 0,0 l/m 2 min 0 min 814 W/m 6,8 km/h (2 Bft) 100,00 %
03.08.2018 14:20 34,2 C 33,9 C 31,1 C 46 % 1017,8 hPa 0,0 l/m 2 min 0 min 819 W/m 4,5 km/h (1 Bft) 100,00 %
03.08.2018 14:22 34,2 C 33,9 C 31,1 C 48 % 1017,7 hPa 0,0 l/m 2 min 0 min 827 W/m 4,5 km/h (1 Bft) 100,00 %
03.08.2018 14:24 34,1 C 33,9 C 31,1 C 46 % 1017,8 hPa 0,0 l/m 2 min 0 min 830 W/m 6,8 km/h (2 Bft) 97,87 %
03.08.2018 14:26 34,1 C 33,9 C 31,1 C 46 % 1017,7 hPa 0,0 l/m 2 min 0 min 848 W/m 6,8 km/h (2 Bft) 97,87 %
03.08.2018 14:28 34,1 C 33,9 C 31,1 C 47 % 1017,7 hPa 0,0 l/m 2 min 0 min 835 W/m 9,0 km/h (2 Bft) 100,00 %
03.08.2018 14:30 34,1 C 33,9 C 31,1 C 46 % 1017,7 hPa 0,0 l/m 2 min 0 min 828 W/m 6,8 km/h (2 Bft) 100,00 %
03.08.2018 14:32 34,1 C 33,9 C 30,6 C 47 % 1017,6 hPa 0,0 l/m 2 min 0 min 821 W/m 2,3 km/h (1 Bft) 97,22 %
03.08.2018 14:34 34,1 C 33,9 C 31,1 C 46 % 1017,6 hPa 0,0 l/m 2 min 0 min 811 W/m 4,5 km/h (1 Bft) 100,00 %
03.08.2018 14:36 34,1 C 33,9 C 31,1 C 46 % 1017,6 hPa 0,0 l/m 2 min 0 min 805 W/m 4,5 km/h (1 Bft) 95,74 %
03.08.2018 14:38 34,1 C 33,3 C 31,1 C 45 % 1017,6 hPa 0,0 l/m 2 min 0 min 485 W/m 4,5 km/h (1 Bft) 100,00 %
03.08.2018 14:40 34,1 C 33,3 C 31,1 C 46 % 1017,7 hPa 0,0 l/m 2 min 0 min 520 W/m 4,5 km/h (1 Bft) 100,00 %
03.08.2018 14:42 34,0 C 32,8 C 30,6 C 45 % 1017,6 hPa 0,0 l/m 2 min 0 min 521 W/m 6,8 km/h (2 Bft) 97,87 %
03.08.2018 14:44 34,0 C 32,8 C 30,6 C 46 % 1017,6 hPa 0,0 l/m 2 min 0 min 522 W/m 6,8 km/h (2 Bft) 100,00 %
03.08.2018 14:46 33,9 C 33,3 C 30,6 C 46 % 1017,6 hPa 0,0 l/m 2 min 0 min 799 W/m 13,5 km/h (3 Bft) 100,00 %
03.08.2018 14:48 33,9 C 33,9 C 30,6 C 47 % 1017,5 hPa 0,0 l/m 2 min 0 min 818 W/m 11,3 km/h (2 Bft) 100,00 %
03.08.2018 14:50 33,9 C 33,9 C 31,1 C 47 % 1017,5 hPa 0,0 l/m 2 min 0 min 821 W/m 9,0 km/h (2 Bft) 97,87 %
03.08.2018 14:52 33,9 C 33,9 C 31,1 C 47 % 1017,6 hPa 0,0 l/m 2 min 0 min 834 W/m 9,0 km/h (2 Bft) 97,87 %
03.08.2018 14:54 33,8 C 33,9 C 31,1 C 47 % 1017,4 hPa 0,0 l/m 2 min 0 min 847 W/m 6,8 km/h (2 Bft) 95,74 %
03.08.2018 14:56 33,8 C 33,9 C 31,1 C 47 % 1017,4 hPa 0,0 l/m 2 min 0 min 857 W/m 9,0 km/h (2 Bft) 100,00 %
03.08.2018 14:58 33,8 C 34,4 C 31,1 C 46 % 1017,4 hPa 0,0 l/m 2 min 0 min 862 W/m 6,8 km/h (2 Bft) 100,00 %
03.08.2018 15:00 33,8 C 34,4 C 31,1 C 46 % 1017,3 hPa 0,0 l/m 2 min 0 min 867 W/m 6,8 km/h (2 Bft) 97,87 %
03.08.2018 15:02 33,8 C 34,4 C 31,1 C 46 % 1017,3 hPa 0,0 l/m 2 min 0 min 859 W/m 4,5 km/h (1 Bft) 98,21 %
03.08.2018 15:04 33,9 C 34,4 C 31,7 C 47 % 1017,4 hPa 0,0 l/m 2 min 0 min 853 W/m 9,0 km/h (2 Bft) 97,87 %
03.08.2018 15:06 33,9 C 34,4 C 31,1 C 46 % 1017,4 hPa 0,0 l/m 2 min 0 min 830 W/m 9,0 km/h (2 Bft) 93,48 %
03.08.2018 15:08 33,9 C 34,4 C 31,1 C 47 % 1017,4 hPa 0,0 l/m 2 min 0 min 835 W/m 4,5 km/h (1 Bft) 97,87 %
03.08.2018 15:10 33,9 C 34,4 C 31,1 C 47 % 1017,4 hPa 0,0 l/m 2 min 0 min 837 W/m 9,0 km/h (2 Bft) 95,74 %
03.08.2018 15:12 33,9 C 34,4 C 31,1 C 47 % 1017,4 hPa 0,0 l/m 2 min 0 min 851 W/m 9,0 km/h (2 Bft) 95,74 %
03.08.2018 15:14 34,0 C 34,4 C 31,1 C 47 % 1017,3 hPa 0,0 l/m 2 min 0 min 827 W/m 2,3 km/h (1 Bft) 95,74 %
03.08.2018 15:16 34,0 C 35,0 C 31,1 C 48 % 1017,4 hPa 0,0 l/m 2 min 0 min 807 W/m 6,8 km/h (2 Bft) 95,74 %
03.08.2018 15:18 34,0 C 35,0 C 31,1 C 47 % 1017,4 hPa 0,0 l/m 2 min 0 min 803 W/m 9,0 km/h (2 Bft) 95,65 %
03.08.2018 15:20 34,1 C 35,0 C 31,1 C 47 % 1017,3 hPa 0,0 l/m 2 min 0 min 811 W/m 11,3 km/h (2 Bft) 93,62 %
03.08.2018 15:22 34,1 C 35,0 C 31,1 C 46 % 1017,3 hPa 0,0 l/m 2 min 0 min 815 W/m 4,5 km/h (1 Bft) 93,75 %
03.08.2018 15:24 34,1 C 35,0 C 31,7 C 47 % 1017,3 hPa 0,0 l/m 2 min 0 min 803 W/m 9,0 km/h (2 Bft) 95,74 %
03.08.2018 15:26 34,1 C 34,4 C 31,7 C 45 % 1017,3 hPa 0,0 l/m 2 min 0 min 799 W/m 6,8 km/h (2 Bft) 97,87 %
03.08.2018 15:28 34,1 C 34,4 C 31,1 C 45 % 1017,3 hPa 0,0 l/m 2 min 0 min 779 W/m 11,3 km/h (2 Bft) 95,74 %
03.08.2018 15:30 34,1 C 33,9 C 31,1 C 44 % 1017,2 hPa 0,0 l/m 2 min 0 min 757 W/m 6,8 km/h (2 Bft) 95,65 %
03.08.2018 15:32 34,2 C 34,4 C 31,1 C 46 % 1017,2 hPa 0,0 l/m 2 min 0 min 727 W/m 6,8 km/h (2 Bft) 96,00 %
03.08.2018 15:34 34,2 C 33,9 C 31,1 C 46 % 1017,1 hPa 0,0 l/m 2 min 0 min 568 W/m 6,8 km/h (2 Bft) 91,49 %
03.08.2018 15:36 34,2 C 33,9 C 31,1 C 47 % 1017,1 hPa 0,0 l/m 0 min 0 min 262 W/m 9,0 km/h (2 Bft) 93,62 %
03.08.2018 15:38 34,1 C 33,3 C 31,1 C 46 % 1017,1 hPa 0,0 l/m 2 min 0 min 436 W/m 6,8 km/h (2 Bft) 93,62 %
03.08.2018 15:40 34,1 C 33,3 C 31,1 C 46 % 1017,0 hPa 0,0 l/m 2 min 0 min 436 W/m 9,0 km/h (2 Bft) 95,65 %
03.08.2018 15:42 34,1 C 33,3 C 31,1 C 44 % 1017,1 hPa 0,0 l/m 2 min 0 min 436 W/m 11,3 km/h (2 Bft) 97,87 %
03.08.2018 15:44 34,0 C 33,3 C 31,1 C 45 % 1017,0 hPa 0,0 l/m 2 min 0 min 572 W/m 9,0 km/h (2 Bft) 95,74 %
03.08.2018 15:46 34,0 C 33,9 C 31,1 C 45 % 1017,0 hPa 0,0 l/m 2 min 0 min 647 W/m 6,8 km/h (2 Bft) 97,87 %
03.08.2018 15:48 34,0 C 33,9 C 31,1 C 45 % 1016,9 hPa 0,0 l/m 2 min 0 min 740 W/m 4,5 km/h (1 Bft) 95,74 %
03.08.2018 15:50 34,0 C 33,9 C 31,1 C 47 % 1016,9 hPa 0,0 l/m 2 min 0 min 689 W/m 6,8 km/h (2 Bft) 95,74 %
03.08.2018 15:52 34,0 C 33,9 C 31,1 C 47 % 1017,0 hPa 0,0 l/m 2 min 0 min 694 W/m 6,8 km/h (2 Bft) 97,83 %
03.08.2018 15:54 34,0 C 34,4 C 31,1 C 46 % 1016,9 hPa 0,0 l/m 2 min 0 min 714 W/m 9,0 km/h (2 Bft) 97,87 %
03.08.2018 15:56 34,0 C 35,0 C 31,7 C 46 % 1016,9 hPa 0,0 l/m 2 min 0 min 709 W/m 4,5 km/h (1 Bft) 95,74 %
03.08.2018 15:58 34,0 C 35,0 C 31,7 C 45 % 1016,9 hPa 0,0 l/m 2 min 0 min 709 W/m 9,0 km/h (2 Bft) 97,87 %
03.08.2018 16:00 34,1 C 35,0 C 31,7 C 45 % 1016,9 hPa 0,0 l/m 2 min 0 min 724 W/m 9,0 km/h (2 Bft) 97,87 %
03.08.2018 16:02 34,1 C 35,0 C 31,7 C 45 % 1016,9 hPa 0,0 l/m 2 min 0 min 727 W/m 6,8 km/h (2 Bft) 97,30 %
03.08.2018 16:04 34,1 C 35,0 C 31,7 C 46 % 1016,8 hPa 0,0 l/m 2 min 0 min 709 W/m 6,8 km/h (2 Bft) 97,87 %
03.08.2018 16:06 34,1 C 35,0 C 31,7 C 45 % 1016,8 hPa 0,0 l/m 2 min 0 min 698 W/m 6,8 km/h (2 Bft) 95,74 %
03.08.2018 16:08 34,1 C 35,0 C 31,7 C 45 % 1016,8 hPa 0,0 l/m 2 min 0 min 690 W/m 4,5 km/h (1 Bft) 97,87 %
03.08.2018 16:10 34,2 C 35,0 C 31,7 C 45 % 1016,8 hPa 0,0 l/m 2 min 0 min 687 W/m 4,5 km/h (1 Bft) 97,87 %
03.08.2018 16:12 34,2 C 35,0 C 32,2 C 47 % 1016,8 hPa 0,0 l/m 2 min 0 min 686 W/m 4,5 km/h (1 Bft) 97,92 %
03.08.2018 16:14 34,2 C 35,0 C 32,2 C 44 % 1016,8 hPa 0,0 l/m 2 min 0 min 674 W/m 6,8 km/h (2 Bft) 97,87 %
03.08.2018 16:16 34,3 C 35,6 C 31,7 C 45 % 1016,8 hPa 0,0 l/m 2 min 0 min 672 W/m 11,3 km/h (2 Bft) 97,87 %
03.08.2018 16:18 34,3 C 36,7 C 31,7 C 46 % 1016,7 hPa 0,0 l/m 2 min 0 min 668 W/m 9,0 km/h (2 Bft) 97,83 %
03.08.2018 16:20 34,3 C 37,2 C 31,7 C 44 % 1016,8 hPa 0,0 l/m 2 min 0 min 650 W/m 9,0 km/h (2 Bft) 97,87 %
03.08.2018 16:22 34,3 C 37,8 C 31,7 C 47 % 1016,7 hPa 0,0 l/m 2 min 0 min 655 W/m 2,3 km/h (1 Bft) 95,74 %
03.08.2018 16:24 34,4 C 38,3 C 31,7 C 46 % 1016,6 hPa 0,0 l/m 2 min 0 min 657 W/m 4,5 km/h (1 Bft) 95,74 %
03.08.2018 16:26 34,4 C 38,3 C 31,7 C 44 % 1016,6 hPa 0,0 l/m 2 min 0 min 650 W/m 4,5 km/h (1 Bft) 97,87 %
03.08.2018 16:28 34,4 C 37,8 C 31,7 C 45 % 1016,5 hPa 0,0 l/m 2 min 0 min 642 W/m 6,8 km/h (2 Bft) 97,83 %
03.08.2018 16:30 34,4 C 37,8 C 31,7 C 44 % 1016,6 hPa 0,0 l/m 2 min 0 min 646 W/m 6,8 km/h (2 Bft) 100,00 %
03.08.2018 16:32 34,5 C 37,8 C 32,2 C 43 % 1016,6 hPa 0,0 l/m 2 min 0 min 658 W/m 13,5 km/h (3 Bft) 97,92 %
03.08.2018 16:34 34,5 C 37,8 C 32,2 C 44 % 1016,5 hPa 0,0 l/m 2 min 0 min 649 W/m 11,3 km/h (2 Bft) 97,87 %
03.08.2018 16:36 34,5 C 37,8 C 31,7 C 44 % 1016,5 hPa 0,0 l/m 2 min 0 min 643 W/m 9,0 km/h (2 Bft) 97,87 %
03.08.2018 16:38 34,5 C 37,2 C 31,7 C 42 % 1016,6 hPa 0,0 l/m 2 min 0 min 646 W/m 11,3 km/h (2 Bft) 97,87 %
03.08.2018 16:40 34,5 C 36,1 C 31,7 C 41 % 1016,5 hPa 0,0 l/m 2 min 0 min 641 W/m 13,5 km/h (3 Bft) 97,83 %
03.08.2018 16:42 34,5 C 36,1 C 31,7 C 43 % 1016,3 hPa 0,0 l/m 2 min 0 min 643 W/m 13,5 km/h (3 Bft) 97,87 %
03.08.2018 16:44 34,5 C 36,7 C 31,7 C 43 % 1016,3 hPa 0,0 l/m 2 min 0 min 635 W/m 9,0 km/h (2 Bft) 95,74 %
03.08.2018 16:46 34,5 C 37,2 C 31,7 C 43 % 1016,4 hPa 0,0 l/m 2 min 0 min 622 W/m 9,0 km/h (2 Bft) 95,74 %
03.08.2018 16:48 34,5 C 37,2 C 31,7 C 45 % 1016,3 hPa 0,0 l/m 2 min 0 min 612 W/m 4,5 km/h (1 Bft) 97,87 %
03.08.2018 16:50 34,5 C 37,2 C 31,7 C 43 % 1016,3 hPa 0,0 l/m 2 min 0 min 609 W/m 11,3 km/h (2 Bft) 97,87 %
03.08.2018 16:52 34,5 C 36,7 C 31,7 C 43 % 1016,3 hPa 0,0 l/m 2 min 0 min 600 W/m 11,3 km/h (2 Bft) 97,83 %
03.08.2018 16:54 34,5 C 37,2 C 31,7 C 44 % 1016,3 hPa 0,0 l/m 2 min 0 min 589 W/m 11,3 km/h (2 Bft) 97,87 %
03.08.2018 16:56 34,5 C 36,7 C 31,7 C 43 % 1016,3 hPa 0,0 l/m 2 min 0 min 586 W/m 13,5 km/h (3 Bft) 97,87 %
03.08.2018 16:58 34,5 C 36,1 C 31,7 C 42 % 1016,3 hPa 0,0 l/m 2 min 0 min 584 W/m 6,8 km/h (2 Bft) 97,87 %
03.08.2018 17:00 34,5 C 36,1 C 31,7 C 44 % 1016,4 hPa 0,0 l/m 2 min 0 min 582 W/m 6,8 km/h (2 Bft) 97,87 %
03.08.2018 17:02 34,5 C 36,1 C 31,7 C 43 % 1016,4 hPa 0,0 l/m 2 min 0 min 584 W/m 6,8 km/h (2 Bft) 97,87 %
03.08.2018 17:04 34,5 C 36,1 C 31,7 C 43 % 1016,3 hPa 0,0 l/m 2 min 0 min 586 W/m 2,3 km/h (1 Bft) 97,83 %
03.08.2018 17:06 34,5 C 36,1 C 31,7 C 42 % 1016,3 hPa 0,0 l/m 2 min 0 min 592 W/m 4,5 km/h (1 Bft) 97,87 %
03.08.2018 17:08 34,5 C 36,7 C 31,7 C 45 % 1016,3 hPa 0,0 l/m 2 min 0 min 592 W/m 2,3 km/h (1 Bft) 97,87 %
03.08.2018 17:10 34,5 C 36,1 C 31,7 C 44 % 1016,3 hPa 0,0 l/m 2 min 0 min 585 W/m 4,5 km/h (1 Bft) 97,87 %
03.08.2018 17:12 34,4 C 35,6 C 31,7 C 43 % 1016,2 hPa 0,0 l/m 2 min 0 min 574 W/m 4,5 km/h (1 Bft) 97,87 %
03.08.2018 17:14 34,5 C 35,6 C 32,2 C 44 % 1016,3 hPa 0,0 l/m 2 min 0 min 566 W/m 9,0 km/h (2 Bft) 97,87 %
03.08.2018 17:16 34,4 C 35,6 C 31,7 C 43 % 1016,2 hPa 0,0 l/m 2 min 0 min 561 W/m 6,8 km/h (2 Bft) 97,83 %
03.08.2018 17:18 34,4 C 35,6 C 31,7 C 43 % 1016,1 hPa 0,0 l/m 2 min 0 min 566 W/m 13,5 km/h (3 Bft) 97,87 %
03.08.2018 17:20 34,4 C 35,6 C 31,7 C 43 % 1016,1 hPa 0,0 l/m 2 min 0 min 563 W/m 4,5 km/h (1 Bft) 97,87 %
03.08.2018 17:22 34,4 C 35,6 C 31,7 C 44 % 1016,1 hPa 0,0 l/m 2 min 0 min 562 W/m 9,0 km/h (2 Bft) 97,87 %
03.08.2018 17:24 34,4 C 35,6 C 32,2 C 42 % 1016,1 hPa 0,0 l/m 2 min 0 min 562 W/m 11,3 km/h (2 Bft) 97,87 %
03.08.2018 17:26 34,4 C 35,0 C 32,2 C 43 % 1016,1 hPa 0,0 l/m 2 min 0 min 561 W/m 11,3 km/h (2 Bft) 97,87 %
03.08.2018 17:28 34,4 C 35,0 C 32,2 C 42 % 1016,0 hPa 0,0 l/m 2 min 0 min 551 W/m 11,3 km/h (2 Bft) 97,83 %
03.08.2018 17:30 34,4 C 35,0 C 32,2 C 42 % 1015,9 hPa 0,0 l/m 2 min 0 min 538 W/m 9,0 km/h (2 Bft) 97,87 %
03.08.2018 17:32 34,4 C 35,0 C 32,2 C 43 % 1016,0 hPa 0,0 l/m 2 min 0 min 525 W/m 15,8 km/h (3 Bft) 95,74 %
03.08.2018 17:34 34,4 C 34,4 C 32,2 C 43 % 1016,0 hPa 0,0 l/m 2 min 0 min 522 W/m 11,3 km/h (2 Bft) 95,74 %
03.08.2018 17:36 34,4 C 34,4 C 32,2 C 43 % 1016,0 hPa 0,0 l/m 2 min 0 min 516 W/m 13,5 km/h (3 Bft) 97,87 %
03.08.2018 17:38 34,4 C 34,4 C 32,2 C 44 % 1016,0 hPa 0,0 l/m 2 min 0 min 506 W/m 6,8 km/h (2 Bft) 97,87 %
03.08.2018 17:40 34,4 C 34,4 C 32,2 C 42 % 1016,0 hPa 0,0 l/m 2 min 0 min 502 W/m 9,0 km/h (2 Bft) 97,83 %
03.08.2018 17:42 34,4 C 34,4 C 32,2 C 44 % 1016,0 hPa 0,0 l/m 2 min 0 min 497 W/m 6,8 km/h (2 Bft) 98,15 %
03.08.2018 17:44 34,4 C 34,4 C 32,2 C 43 % 1015,9 hPa 0,0 l/m 2 min 0 min 496 W/m 9,0 km/h (2 Bft) 97,87 %
03.08.2018 17:46 34,4 C 34,4 C 32,2 C 43 % 1015,9 hPa 0,0 l/m 2 min 0 min 500 W/m 9,0 km/h (2 Bft) 97,87 %
03.08.2018 17:48 34,4 C 34,4 C 32,2 C 42 % 1015,9 hPa 0,0 l/m 2 min 0 min 497 W/m 4,5 km/h (1 Bft) 95,74 %
03.08.2018 17:50 34,5 C 34,4 C 32,2 C 43 % 1016,1 hPa 0,0 l/m 2 min 0 min 490 W/m 6,8 km/h (2 Bft) 97,83 %
03.08.2018 17:52 34,4 C 34,4 C 32,2 C 43 % 1016,0 hPa 0,0 l/m 2 min 0 min 487 W/m 9,0 km/h (2 Bft) 97,87 %
03.08.2018 17:54 34,4 C 34,4 C 32,2 C 43 % 1015,9 hPa 0,0 l/m 2 min 0 min 472 W/m 6,8 km/h (2 Bft) 97,87 %
03.08.2018 17:56 34,4 C 34,4 C 32,2 C 43 % 1016,0 hPa 0,0 l/m 2 min 0 min 462 W/m 6,8 km/h (2 Bft) 97,87 %
03.08.2018 17:58 34,4 C 34,4 C 32,2 C 42 % 1015,9 hPa 0,0 l/m 2 min 0 min 454 W/m 6,8 km/h (2 Bft) 97,87 %
03.08.2018 18:00 34,4 C 34,4 C 32,2 C 43 % 1015,9 hPa 0,0 l/m 2 min 0 min 447 W/m 9,0 km/h (2 Bft) 97,83 %
03.08.2018 18:02 34,4 C 34,4 C 32,2 C 43 % 1015,9 hPa 0,0 l/m 2 min 0 min 451 W/m 11,3 km/h (2 Bft) 94,74 %
03.08.2018 18:04 34,4 C 34,4 C 32,2 C 43 % 1015,9 hPa 0,0 l/m 2 min 0 min 459 W/m 11,3 km/h (2 Bft) 97,87 %
03.08.2018 18:08 34,5 C 34,4 C 32,2 C 43 % 1015,9 hPa 0,0 l/m 4 min 0 min 468 W/m 13,5 km/h (3 Bft) 97,87 %
03.08.2018 18:10 34,4 C 34,4 C 32,2 C 43 % 1016,0 hPa 0,0 l/m 2 min 0 min 472 W/m 6,8 km/h (2 Bft) 97,87 %
03.08.2018 18:12 34,4 C 33,9 C 32,2 C 42 % 1015,9 hPa 0,0 l/m 2 min 0 min 464 W/m 11,3 km/h (2 Bft) 95,83 %
03.08.2018 18:14 34,4 C 33,9 C 32,2 C 42 % 1015,9 hPa 0,0 l/m 2 min 0 min 453 W/m 4,5 km/h (1 Bft) 97,83 %
03.08.2018 18:16 34,4 C 33,9 C 32,2 C 42 % 1015,9 hPa 0,0 l/m 2 min 0 min 444 W/m 9,0 km/h (2 Bft) 97,87 %
03.08.2018 18:18 34,4 C 33,9 C 32,2 C 43 % 1015,9 hPa 0,0 l/m 2 min 0 min 432 W/m 9,0 km/h (2 Bft) 95,74 %
03.08.2018 18:20 34,4 C 33,9 C 32,2 C 43 % 1015,9 hPa 0,0 l/m 2 min 0 min 418 W/m 9,0 km/h (2 Bft) 95,74 %
03.08.2018 18:22 34,4 C 33,9 C 32,2 C 42 % 1015,9 hPa 0,0 l/m 2 min 0 min 408 W/m 13,5 km/h (3 Bft) 97,87 %
03.08.2018 18:24 34,4 C 33,9 C 32,2 C 42 % 1015,9 hPa 0,0 l/m 2 min 0 min 401 W/m 11,3 km/h (2 Bft) 97,87 %
03.08.2018 18:26 34,4 C 33,9 C 32,2 C 42 % 1015,9 hPa 0,0 l/m 2 min 0 min 397 W/m 11,3 km/h (2 Bft) 97,83 %
03.08.2018 18:28 34,3 C 33,9 C 32,2 C 42 % 1015,9 hPa 0,0 l/m 2 min 0 min 392 W/m 11,3 km/h (2 Bft) 95,74 %
03.08.2018 18:30 34,3 C 33,9 C 32,2 C 43 % 1015,8 hPa 0,0 l/m 2 min 0 min 388 W/m 9,0 km/h (2 Bft) 97,87 %
03.08.2018 18:32 34,3 C 33,3 C 32,2 C 42 % 1015,8 hPa 0,0 l/m 2 min 0 min 385 W/m 18,0 km/h (3 Bft) 97,92 %
03.08.2018 18:34 34,3 C 33,3 C 32,2 C 42 % 1015,9 hPa 0,0 l/m 2 min 0 min 379 W/m 15,8 km/h (3 Bft) 95,74 %
03.08.2018 18:36 34,2 C 33,3 C 32,2 C 43 % 1015,8 hPa 0,0 l/m 2 min 0 min 372 W/m 6,8 km/h (2 Bft) 97,87 %
03.08.2018 18:38 34,2 C 33,3 C 32,2 C 43 % 1015,8 hPa 0,0 l/m 2 min 0 min 367 W/m 6,8 km/h (2 Bft) 95,65 %
03.08.2018 18:40 34,2 C 33,3 C 31,7 C 42 % 1015,8 hPa 0,0 l/m 2 min 0 min 355 W/m 11,3 km/h (2 Bft) 97,87 %
03.08.2018 18:42 34,1 C 33,3 C 31,7 C 43 % 1015,8 hPa 0,0 l/m 2 min 0 min 345 W/m 13,5 km/h (3 Bft) 97,87 %
03.08.2018 18:44 34,1 C 33,3 C 31,7 C 43 % 1015,7 hPa 0,0 l/m 2 min 0 min 339 W/m 11,3 km/h (2 Bft) 97,87 %
03.08.2018 18:46 34,1 C 33,3 C 31,7 C 42 % 1015,7 hPa 0,0 l/m 2 min 0 min 333 W/m 9,0 km/h (2 Bft) 97,87 %
03.08.2018 18:48 34,1 C 33,3 C 31,7 C 43 % 1015,7 hPa 0,0 l/m 2 min 0 min 327 W/m 9,0 km/h (2 Bft) 97,87 %
03.08.2018 18:50 34,0 C 33,3 C 31,7 C 43 % 1015,7 hPa 0,0 l/m 2 min 0 min 321 W/m 11,3 km/h (2 Bft) 97,83 %
03.08.2018 18:52 34,0 C 31,7 C 31,1 C 43 % 1015,7 hPa 0,0 l/m 2 min 0 min 312 W/m 15,8 km/h (3 Bft) 93,62 %
03.08.2018 18:54 33,9 C 29,4 C 28,9 C 44 % 1015,7 hPa 0,0 l/m 2 min 0 min 307 W/m 11,3 km/h (2 Bft) 97,87 %
03.08.2018 18:56 33,9 C 28,9 C 28,3 C 44 % 1015,8 hPa 0,0 l/m 2 min 0 min 302 W/m 13,5 km/h (3 Bft) 97,87 %
03.08.2018 18:58 33,8 C 29,4 C 27,2 C 43 % 1015,7 hPa 0,0 l/m 2 min 0 min 299 W/m 11,3 km/h (2 Bft) 97,87 %
03.08.2018 19:00 33,7 C 25,6 C 25,6 C 44 % 1015,7 hPa 0,0 l/m 2 min 0 min 292 W/m 4,5 km/h (1 Bft) 93,62 %
03.08.2018 19:02 33,7 C 25,6 C 23,9 C 44 % 1015,8 hPa 0,0 l/m 2 min 0 min 260 W/m 6,8 km/h (2 Bft) 93,48 %
03.08.2018 19:04 33,6 C 25,6 C 23,9 C 44 % 1015,9 hPa 0,0 l/m 2 min 0 min 204 W/m 11,3 km/h (2 Bft) 97,87 %
03.08.2018 19:06 33,5 C 27,2 C 23,3 C 45 % 1015,9 hPa 0,0 l/m 0 min 0 min 106 W/m 18,0 km/h (3 Bft) 100,00 %
03.08.2018 19:08 33,4 C 25,6 C 23,9 C 44 % 1015,9 hPa 0,0 l/m 0 min 0 min 84 W/m 11,3 km/h (2 Bft) 95,74 %
03.08.2018 19:10 33,3 C 25,0 C 24,4 C 44 % 1015,8 hPa 0,0 l/m 0 min 0 min 88 W/m 11,3 km/h (2 Bft) 93,62 %
03.08.2018 19:12 33,2 C 25,0 C 24,4 C 45 % 1015,8 hPa 0,0 l/m 0 min 0 min 100 W/m 13,5 km/h (3 Bft) 97,87 %
03.08.2018 19:14 33,1 C 23,9 C 23,9 C 44 % 1015,8 hPa 0,0 l/m 0 min 0 min 107 W/m 13,5 km/h (3 Bft) 100,00 %
03.08.2018 19:16 33,0 C 23,9 C 23,9 C 44 % 1015,9 hPa 0,0 l/m 0 min 0 min 112 W/m 18,0 km/h (3 Bft) 97,87 %
03.08.2018 19:18 32,9 C 25,0 C 25,6 C 44 % 1015,9 hPa 0,0 l/m 0 min 0 min 103 W/m 15,8 km/h (3 Bft) 97,87 %
03.08.2018 19:20 32,8 C 25,6 C 26,1 C 45 % 1015,8 hPa 0,0 l/m 0 min 0 min 111 W/m 15,8 km/h (3 Bft) 97,87 %
03.08.2018 19:22 32,7 C 27,8 C 26,7 C 44 % 1015,8 hPa 0,0 l/m 0 min 0 min 77 W/m 13,5 km/h (3 Bft) 97,87 %
03.08.2018 19:24 32,6 C 28,9 C 26,1 C 44 % 1015,8 hPa 0,0 l/m 0 min 0 min 76 W/m 13,5 km/h (3 Bft) 97,83 %
03.08.2018 19:26 32,5 C 29,4 C 25,6 C 44 % 1015,8 hPa 0,0 l/m 0 min 0 min 75 W/m 6,8 km/h (2 Bft) 100,00 %
03.08.2018 19:28 32,4 C 30,0 C 23,9 C 45 % 1015,8 hPa 0,0 l/m 0 min 0 min 73 W/m 6,8 km/h (2 Bft) 100,00 %
03.08.2018 19:30 32,4 C 30,0 C 22,2 C 46 % 1015,8 hPa 0,0 l/m 0 min 0 min 72 W/m 11,3 km/h (2 Bft) 97,87 %
03.08.2018 19:32 32,3 C 30,0 C 22,8 C 45 % 1015,9 hPa 0,0 l/m 0 min 0 min 70 W/m 9,0 km/h (2 Bft) 97,87 %
03.08.2018 19:34 32,2 C 30,0 C 24,4 C 45 % 1015,9 hPa 0,0 l/m 0 min 0 min 70 W/m 18,0 km/h (3 Bft) 97,87 %
03.08.2018 19:36 32,1 C 30,0 C 25,0 C 45 % 1015,9 hPa 0,0 l/m 0 min 0 min 69 W/m 15,8 km/h (3 Bft) 100,00 %
03.08.2018 19:38 32,0 C 29,4 C 25,6 C 46 % 1015,9 hPa 0,0 l/m 0 min 0 min 68 W/m 9,0 km/h (2 Bft) 100,00 %
03.08.2018 19:40 31,9 C 29,4 C 27,2 C 45 % 1015,8 hPa 0,0 l/m 0 min 0 min 67 W/m 11,3 km/h (2 Bft) 97,87 %
03.08.2018 19:42 31,9 C 30,0 C 27,8 C 46 % 1015,9 hPa 0,0 l/m 0 min 0 min 65 W/m 15,8 km/h (3 Bft) 95,74 %
03.08.2018 19:44 31,8 C 30,0 C 27,8 C 45 % 1015,8 hPa 0,0 l/m 0 min 0 min 65 W/m 15,8 km/h (3 Bft) 100,00 %
03.08.2018 19:46 31,8 C 29,4 C 27,8 C 47 % 1015,8 hPa 0,0 l/m 0 min 0 min 63 W/m 11,3 km/h (2 Bft) 100,00 %
03.08.2018 19:48 31,8 C 29,4 C 27,8 C 48 % 1015,8 hPa 0,0 l/m 0 min 0 min 62 W/m 9,0 km/h (2 Bft) 95,65 %
03.08.2018 19:50 31,7 C 30,0 C 27,8 C 46 % 1015,9 hPa 0,0 l/m 0 min 0 min 61 W/m 9,0 km/h (2 Bft) 97,87 %
03.08.2018 19:52 31,7 C 30,0 C 27,8 C 46 % 1015,9 hPa 0,0 l/m 0 min 0 min 58 W/m 6,8 km/h (2 Bft) 97,87 %
03.08.2018 19:54 31,6 C 30,0 C 27,8 C 46 % 1015,9 hPa 0,0 l/m 0 min 0 min 57 W/m 11,3 km/h (2 Bft) 97,87 %
03.08.2018 19:56 31,6 C 30,0 C 28,3 C 45 % 1015,8 hPa 0,0 l/m 0 min 0 min 56 W/m 11,3 km/h (2 Bft) 97,87 %
03.08.2018 19:58 31,6 C 30,0 C 28,3 C 46 % 1015,8 hPa 0,0 l/m 0 min 0 min 54 W/m 9,0 km/h (2 Bft) 97,87 %
03.08.2018 20:00 31,5 C 30,0 C 28,3 C 46 % 1015,8 hPa 0,0 l/m 0 min 0 min 53 W/m 9,0 km/h (2 Bft) 97,83 %
03.08.2018 20:02 31,4 C 30,0 C 27,8 C 47 % 1015,8 hPa 0,0 l/m 0 min 0 min 51 W/m 2,3 km/h (1 Bft) 97,96 %
03.08.2018 20:04 31,4 C 30,0 C 27,8 C 47 % 1015,8 hPa 0,0 l/m 0 min 0 min 50 W/m 6,8 km/h (2 Bft) 97,87 %
03.08.2018 20:06 31,4 C 30,0 C 27,8 C 46 % 1015,9 hPa 0,0 l/m 0 min 0 min 49 W/m 9,0 km/h (2 Bft) 97,87 %
03.08.2018 20:08 31,3 C 30,0 C 27,8 C 47 % 1015,9 hPa 0,0 l/m 0 min 0 min 48 W/m 11,3 km/h (2 Bft) 97,87 %
03.08.2018 20:10 31,3 C 30,0 C 28,3 C 46 % 1015,9 hPa 0,0 l/m 0 min 0 min 47 W/m 13,5 km/h (3 Bft) 95,74 %
03.08.2018 20:12 31,3 C 30,0 C 27,8 C 47 % 1015,9 hPa 0,0 l/m 0 min 0 min 46 W/m 6,8 km/h (2 Bft) 97,83 %
03.08.2018 20:14 31,2 C 30,0 C 27,8 C 48 % 1015,9 hPa 0,0 l/m 0 min 0 min 45 W/m 4,5 km/h (1 Bft) 97,87 %
03.08.2018 20:16 31,2 C 29,4 C 27,8 C 47 % 1015,9 hPa 0,0 l/m 0 min 0 min 44 W/m 9,0 km/h (2 Bft) 97,87 %
03.08.2018 20:18 31,2 C 29,4 C 27,8 C 47 % 1015,9 hPa 0,0 l/m 0 min 0 min 42 W/m 11,3 km/h (2 Bft) 97,87 %
03.08.2018 20:20 31,1 C 29,4 C 27,8 C 47 % 1015,9 hPa 0,0 l/m 0 min 0 min 42 W/m 11,3 km/h (2 Bft) 97,87 %
03.08.2018 20:22 31,1 C 29,4 C 27,8 C 47 % 1015,9 hPa 0,0 l/m 0 min 0 min 40 W/m 4,5 km/h (1 Bft) 97,83 %
03.08.2018 20:24 31,0 C 29,4 C 27,8 C 48 % 1015,8 hPa 0,0 l/m 0 min 0 min 39 W/m 4,5 km/h (1 Bft) 97,87 %
03.08.2018 20:26 31,0 C 29,4 C 27,8 C 48 % 1015,8 hPa 0,0 l/m 0 min 0 min 38 W/m 6,8 km/h (2 Bft) 97,87 %
03.08.2018 20:28 30,9 C 29,4 C 27,8 C 48 % 1015,8 hPa 0,0 l/m 0 min 0 min 36 W/m 11,3 km/h (2 Bft) 97,87 %
03.08.2018 20:30 30,9 C 29,4 C 27,8 C 48 % 1015,8 hPa 0,0 l/m 0 min 0 min 34 W/m 11,3 km/h (2 Bft) 97,87 %
03.08.2018 20:32 30,8 C 29,4 C 27,8 C 48 % 1015,8 hPa 0,0 l/m 0 min 0 min 33 W/m 9,0 km/h (2 Bft) 95,74 %
03.08.2018 20:34 30,8 C 29,4 C 27,2 C 48 % 1015,8 hPa 0,0 l/m 0 min 0 min 33 W/m 6,8 km/h (2 Bft) 97,87 %
03.08.2018 20:36 30,8 C 28,9 C 27,2 C 48 % 1015,8 hPa 0,0 l/m 0 min 0 min 31 W/m 6,8 km/h (2 Bft) 95,65 %
03.08.2018 20:38 30,7 C 28,9 C 27,2 C 49 % 1015,8 hPa 0,0 l/m 0 min 0 min 29 W/m 2,3 km/h (1 Bft) 97,87 %
03.08.2018 20:40 30,7 C 28,9 C 27,2 C 49 % 1015,7 hPa 0,0 l/m 0 min 0 min 28 W/m 4,5 km/h (1 Bft) 97,87 %
03.08.2018 20:42 30,6 C 28,9 C 27,2 C 49 % 1015,7 hPa 0,0 l/m 0 min 0 min 26 W/m 4,5 km/h (1 Bft) 95,74 %
03.08.2018 20:44 30,6 C 28,9 C 27,2 C 49 % 1015,7 hPa 0,0 l/m 0 min 0 min 25 W/m 4,5 km/h (1 Bft) 95,74 %
03.08.2018 20:46 30,5 C 28,9 C 27,2 C 49 % 1015,7 hPa 0,0 l/m 0 min 0 min 24 W/m 6,8 km/h (2 Bft) 93,48 %
03.08.2018 20:48 30,4 C 28,9 C 27,2 C 49 % 1015,8 hPa 0,0 l/m 0 min 0 min 23 W/m 4,5 km/h (1 Bft) 95,74 %
03.08.2018 20:50 30,4 C 28,3 C 27,2 C 50 % 1015,8 hPa 0,0 l/m 0 min 0 min 22 W/m 6,8 km/h (2 Bft) 97,87 %
03.08.2018 20:52 30,3 C 28,3 C 27,2 C 50 % 1015,8 hPa 0,0 l/m 0 min 0 min 21 W/m 4,5 km/h (1 Bft) 91,49 %
03.08.2018 20:54 30,3 C 28,3 C 26,7 C 50 % 1015,8 hPa 0,0 l/m 0 min 0 min 19 W/m 4,5 km/h (1 Bft) 93,62 %
03.08.2018 20:56 30,3 C 28,3 C 26,7 C 50 % 1015,8 hPa 0,0 l/m 0 min 0 min 18 W/m 4,5 km/h (1 Bft) 89,36 %
03.08.2018 20:58 30,2 C 28,3 C 26,7 C 50 % 1015,8 hPa 0,0 l/m 0 min 0 min 18 W/m 9,0 km/h (2 Bft) 93,48 %
03.08.2018 21:00 30,2 C 27,8 C 26,7 C 50 % 1015,8 hPa 0,0 l/m 0 min 0 min 16 W/m 4,5 km/h (1 Bft) 91,49 %
03.08.2018 21:02 30,1 C 27,8 C 26,7 C 51 % 1015,7 hPa 0,0 l/m 0 min 0 min 15 W/m 2,3 km/h (1 Bft) 93,62 %
03.08.2018 21:04 30,1 C 27,8 C 26,1 C 51 % 1015,8 hPa 0,0 l/m 0 min 0 min 14 W/m 2,3 km/h (1 Bft) 93,62 %
03.08.2018 21:06 30,0 C 27,8 C 26,1 C 51 % 1015,8 hPa 0,0 l/m 0 min 0 min 12 W/m 2,3 km/h (1 Bft) 93,62 %
03.08.2018 21:08 30,0 C 27,8 C 25,6 C 52 % 1015,8 hPa 0,0 l/m 0 min 0 min 12 W/m 4,5 km/h (1 Bft) 95,74 %
03.08.2018 21:10 29,9 C 27,2 C 25,6 C 52 % 1015,9 hPa 0,0 l/m 0 min 0 min 11 W/m 2,3 km/h (1 Bft) 93,48 %
03.08.2018 21:12 29,9 C 27,2 C 25,6 C 52 % 1016,0 hPa 0,0 l/m 0 min 0 min 9 W/m 4,5 km/h (1 Bft) 95,74 %
03.08.2018 21:14 29,8 C 27,2 C 25,0 C 52 % 1015,9 hPa 0,0 l/m 0 min 0 min 6 W/m 0,0 km/h (0 Bft) 95,74 %
03.08.2018 21:16 29,8 C 27,2 C 25,0 C 52 % 1015,9 hPa 0,0 l/m 0 min 0 min 5 W/m 4,5 km/h (1 Bft) 97,87 %
03.08.2018 21:18 29,7 C 27,2 C 25,0 C 52 % 1016,0 hPa 0,0 l/m 0 min 0 min 5 W/m 2,3 km/h (1 Bft) 95,74 %
03.08.2018 21:20 29,6 C 27,2 C 25,0 C 52 % 1016,0 hPa 0,0 l/m 0 min 0 min 3 W/m 4,5 km/h (1 Bft) 95,74 %
03.08.2018 21:22 29,5 C 27,2 C 25,6 C 52 % 1015,9 hPa 0,0 l/m 0 min 0 min 0 W/m 4,5 km/h (1 Bft) 95,65 %
03.08.2018 21:24 29,4 C 27,2 C 25,6 C 52 % 1016,0 hPa 0,0 l/m 0 min 0 min 0 W/m 4,5 km/h (1 Bft) 95,74 %
03.08.2018 21:26 29,4 C 27,2 C 25,6 C 52 % 1015,9 hPa 0,0 l/m 0 min 0 min 0 W/m 2,3 km/h (1 Bft) 95,74 %
03.08.2018 21:28 29,3 C 27,2 C 25,0 C 52 % 1016,0 hPa 0,0 l/m 0 min 0 min 0 W/m 2,3 km/h (1 Bft) 93,62 %
03.08.2018 21:30 29,2 C 27,2 C 25,0 C 52 % 1015,9 hPa 0,0 l/m 0 min 0 min 0 W/m 2,3 km/h (1 Bft) 95,74 %
03.08.2018 21:32 29,2 C 26,7 C 25,0 C 53 % 1016,1 hPa 0,0 l/m 0 min 0 min 0 W/m 4,5 km/h (1 Bft) 97,87 %
03.08.2018 21:34 29,1 C 26,7 C 25,0 C 53 % 1016,1 hPa 0,0 l/m 0 min 0 min 0 W/m 6,8 km/h (2 Bft) 97,83 %
03.08.2018 21:36 29,1 C 26,7 C 25,0 C 53 % 1016,1 hPa 0,0 l/m 0 min 0 min 0 W/m 2,3 km/h (1 Bft) 97,87 %
03.08.2018 21:38 28,9 C 26,7 C 25,0 C 53 % 1016,0 hPa 0,0 l/m 0 min 0 min 0 W/m 4,5 km/h (1 Bft) 100,00 %
03.08.2018 21:40 28,9 C 26,7 C 25,0 C 54 % 1016,1 hPa 0,0 l/m 0 min 0 min 0 W/m 9,0 km/h (2 Bft) 97,87 %
03.08.2018 21:42 28,8 C 27,2 C 25,6 C 53 % 1016,1 hPa 0,0 l/m 0 min 0 min 0 W/m 6,8 km/h (2 Bft) 100,00 %
03.08.2018 21:44 28,7 C 26,7 C 25,6 C 53 % 1016,2 hPa 0,0 l/m 0 min 0 min 0 W/m 2,3 km/h (1 Bft) 97,87 %
03.08.2018 21:46 28,7 C 26,7 C 25,6 C 53 % 1016,2 hPa 0,0 l/m 0 min 0 min 0 W/m 2,3 km/h (1 Bft) 100,00 %
03.08.2018 21:48 28,6 C 26,7 C 25,6 C 54 % 1016,2 hPa 0,0 l/m 0 min 0 min 0 W/m 2,3 km/h (1 Bft) 97,87 %
03.08.2018 21:50 28,6 C 26,7 C 25,6 C 54 % 1016,2 hPa 0,0 l/m 0 min 0 min 0 W/m 4,5 km/h (1 Bft) 100,00 %
03.08.2018 21:52 28,6 C 26,7 C 25,6 C 53 % 1016,2 hPa 0,0 l/m 0 min 0 min 0 W/m 4,5 km/h (1 Bft) 97,87 %
03.08.2018 21:54 28,5 C 26,7 C 25,6 C 53 % 1016,2 hPa 0,0 l/m 0 min 0 min 0 W/m 2,3 km/h (1 Bft) 100,00 %
03.08.2018 21:56 28,4 C 26,7 C 25,0 C 54 % 1016,3 hPa 0,0 l/m 0 min 0 min 0 W/m 2,3 km/h (1 Bft) 100,00 %
03.08.2018 21:58 28,4 C 26,7 C 25,0 C 54 % 1016,2 hPa 0,0 l/m 0 min 0 min 0 W/m 2,3 km/h (1 Bft) 97,83 %
03.08.2018 22:00 28,4 C 26,7 C 25,0 C 54 % 1016,3 hPa 0,0 l/m 0 min 0 min 0 W/m 2,3 km/h (1 Bft) 100,00 %
03.08.2018 22:02 28,3 C 26,7 C 25,0 C 54 % 1016,2 hPa 0,0 l/m 0 min 0 min 0 W/m 2,3 km/h (1 Bft) 97,92 %
03.08.2018 22:04 28,3 C 26,7 C 25,0 C 54 % 1016,3 hPa 0,0 l/m 0 min 0 min 0 W/m 4,5 km/h (1 Bft) 97,87 %
03.08.2018 22:06 28,3 C 26,7 C 25,0 C 54 % 1016,3 hPa 0,0 l/m 0 min 0 min 0 W/m 2,3 km/h (1 Bft) 100,00 %
03.08.2018 22:08 28,2 C 26,7 C 25,0 C 54 % 1016,3 hPa 0,0 l/m 0 min 0 min 0 W/m 9,0 km/h (2 Bft) 100,00 %
03.08.2018 22:10 28,2 C 26,7 C 25,0 C 54 % 1016,3 hPa 0,0 l/m 0 min 0 min 0 W/m 6,8 km/h (2 Bft) 100,00 %
03.08.2018 22:12 28,2 C 26,7 C 25,6 C 54 % 1016,3 hPa 0,0 l/m 0 min 0 min 0 W/m 6,8 km/h (2 Bft) 97,87 %
03.08.2018 22:14 28,1 C 26,7 C 25,6 C 54 % 1016,4 hPa 0,0 l/m 0 min 0 min 0 W/m 6,8 km/h (2 Bft) 100,00 %
03.08.2018 22:16 28,1 C 26,7 C 25,6 C 54 % 1016,4 hPa 0,0 l/m 0 min 0 min 0 W/m 13,5 km/h (3 Bft) 100,00 %
03.08.2018 22:18 28,0 C 26,7 C 25,6 C 54 % 1016,4 hPa 0,0 l/m 0 min 0 min 0 W/m 9,0 km/h (2 Bft) 100,00 %
03.08.2018 22:20 28,0 C 26,7 C 26,1 C 54 % 1016,4 hPa 0,0 l/m 0 min 0 min 0 W/m 6,8 km/h (2 Bft) 100,00 %
03.08.2018 22:22 27,9 C 27,2 C 26,1 C 54 % 1016,3 hPa 0,0 l/m 0 min 0 min 0 W/m 11,3 km/h (2 Bft) 100,00 %
03.08.2018 22:24 27,9 C 27,2 C 26,1 C 55 % 1016,3 hPa 0,0 l/m 0 min 0 min 0 W/m 6,8 km/h (2 Bft) 100,00 %
03.08.2018 22:26 27,9 C 27,2 C 26,1 C 55 % 1016,4 hPa 0,0 l/m 0 min 0 min 0 W/m 9,0 km/h (2 Bft) 97,87 %
03.08.2018 22:28 27,9 C 27,2 C 26,1 C 55 % 1016,4 hPa 0,0 l/m 0 min 0 min 0 W/m 6,8 km/h (2 Bft) 100,00 %
03.08.2018 22:30 27,9 C 27,2 C 26,1 C 55 % 1016,4 hPa 0,0 l/m 0 min 0 min 0 W/m 6,8 km/h (2 Bft) 97,87 %
03.08.2018 22:32 27,9 C 27,2 C 26,1 C 54 % 1016,4 hPa 0,0 l/m 0 min 0 min 0 W/m 6,8 km/h (2 Bft) 100,00 %
03.08.2018 22:34 27,9 C 27,2 C 26,1 C 55 % 1016,4 hPa 0,0 l/m 0 min 0 min 0 W/m 6,8 km/h (2 Bft) 100,00 %
03.08.2018 22:36 27,9 C 27,2 C 26,1 C 54 % 1016,4 hPa 0,0 l/m 0 min 0 min 0 W/m 2,3 km/h (1 Bft) 100,00 %
03.08.2018 22:38 27,9 C 26,7 C 26,1 C 54 % 1016,5 hPa 0,0 l/m 0 min 0 min 0 W/m 6,8 km/h (2 Bft) 97,87 %
03.08.2018 22:40 27,9 C 26,7 C 26,1 C 54 % 1016,4 hPa 0,0 l/m 0 min 0 min 0 W/m 9,0 km/h (2 Bft) 100,00 %
03.08.2018 22:42 27,9 C 26,7 C 26,1 C 54 % 1016,5 hPa 0,0 l/m 0 min 0 min 0 W/m 4,5 km/h (1 Bft) 100,00 %
03.08.2018 22:44 27,9 C 26,7 C 26,1 C 54 % 1016,5 hPa 0,0 l/m 0 min 0 min 0 W/m 9,0 km/h (2 Bft) 100,00 %
03.08.2018 22:46 27,9 C 26,7 C 26,1 C 54 % 1016,4 hPa 0,0 l/m 0 min 0 min 0 W/m 6,8 km/h (2 Bft) 100,00 %
03.08.2018 22:48 27,8 C 26,7 C 26,1 C 54 % 1016,5 hPa 0,0 l/m 0 min 0 min 0 W/m 6,8 km/h (2 Bft) 100,00 %
03.08.2018 22:50 27,8 C 26,7 C 26,1 C 54 % 1016,6 hPa 0,0 l/m 0 min 0 min 0 W/m 6,8 km/h (2 Bft) 95,74 %
03.08.2018 22:52 27,8 C 26,7 C 26,1 C 54 % 1016,5 hPa 0,0 l/m 0 min 0 min 0 W/m 11,3 km/h (2 Bft) 100,00 %
03.08.2018 22:54 27,8 C 26,7 C 26,1 C 54 % 1016,5 hPa 0,0 l/m 0 min 0 min 0 W/m 9,0 km/h (2 Bft) 100,00 %
03.08.2018 22:56 27,8 C 26,7 C 26,1 C 54 % 1016,6 hPa 0,0 l/m 0 min 0 min 0 W/m 6,8 km/h (2 Bft) 100,00 %
03.08.2018 22:58 27,8 C 26,7 C 26,1 C 53 % 1016,5 hPa 0,0 l/m 0 min 0 min 0 W/m 4,5 km/h (1 Bft) 100,00 %
03.08.2018 23:00 27,8 C 26,7 C 26,1 C 53 % 1016,5 hPa 0,0 l/m 0 min 0 min 0 W/m 11,3 km/h (2 Bft) 100,00 %
03.08.2018 23:02 27,7 C 26,7 C 25,6 C 53 % 1016,6 hPa 0,0 l/m 0 min 0 min 0 W/m 4,5 km/h (1 Bft) 97,92 %
03.08.2018 23:04 27,7 C 26,7 C 25,6 C 53 % 1016,6 hPa 0,0 l/m 0 min 0 min 0 W/m 2,3 km/h (1 Bft) 100,00 %
03.08.2018 23:06 27,7 C 26,7 C 25,6 C 53 % 1016,6 hPa 0,0 l/m 0 min 0 min 0 W/m 6,8 km/h (2 Bft) 100,00 %
03.08.2018 23:08 27,7 C 26,1 C 25,6 C 53 % 1016,6 hPa 0,0 l/m 0 min 0 min 0 W/m 9,0 km/h (2 Bft) 100,00 %
03.08.2018 23:10 27,7 C 26,1 C 25,6 C 53 % 1016,6 hPa 0,0 l/m 0 min 0 min 0 W/m 4,5 km/h (1 Bft) 100,00 %
03.08.2018 23:12 27,7 C 26,1 C 25,6 C 53 % 1016,6 hPa 0,0 l/m 0 min 0 min 0 W/m 4,5 km/h (1 Bft) 100,00 %
03.08.2018 23:14 27,6 C 26,1 C 25,6 C 53 % 1016,6 hPa 0,0 l/m 0 min 0 min 0 W/m 6,8 km/h (2 Bft) 97,87 %
03.08.2018 23:16 27,6 C 26,1 C 25,6 C 53 % 1016,6 hPa 0,0 l/m 0 min 0 min 0 W/m 4,5 km/h (1 Bft) 100,00 %
03.08.2018 23:18 27,6 C 26,1 C 25,6 C 53 % 1016,6 hPa 0,0 l/m 0 min 0 min 0 W/m 4,5 km/h (1 Bft) 100,00 %
03.08.2018 23:20 27,6 C 26,1 C 25,6 C 52 % 1016,6 hPa 0,0 l/m 0 min 0 min 0 W/m 6,8 km/h (2 Bft) 97,87 %
03.08.2018 23:22 27,5 C 26,1 C 25,6 C 53 % 1016,6 hPa 0,0 l/m 0 min 0 min 0 W/m 4,5 km/h (1 Bft) 95,74 %
03.08.2018 23:24 27,5 C 26,1 C 25,6 C 52 % 1016,6 hPa 0,0 l/m 0 min 0 min 0 W/m 4,5 km/h (1 Bft) 97,87 %
03.08.2018 23:26 27,5 C 26,1 C 25,6 C 53 % 1016,5 hPa 0,0 l/m 0 min 0 min 0 W/m 4,5 km/h (1 Bft) 97,87 %
03.08.2018 23:28 27,4 C 26,1 C 25,6 C 52 % 1016,5 hPa 0,0 l/m 0 min 0 min 0 W/m 2,3 km/h (1 Bft) 95,74 %
03.08.2018 23:30 27,4 C 26,1 C 25,6 C 52 % 1016,5 hPa 0,0 l/m 0 min 0 min 0 W/m 4,5 km/h (1 Bft) 95,65 %
03.08.2018 23:32 27,4 C 26,1 C 25,6 C 52 % 1016,6 hPa 0,0 l/m 0 min 0 min 0 W/m 4,5 km/h (1 Bft) 97,30 %
03.08.2018 23:34 27,4 C 26,1 C 25,6 C 52 % 1016,5 hPa 0,0 l/m 0 min 0 min 0 W/m 4,5 km/h (1 Bft) 94,83 %
03.08.2018 23:36 27,4 C 26,1 C 25,6 C 52 % 1016,5 hPa 0,0 l/m 0 min 0 min 0 W/m 6,8 km/h (2 Bft) 95,74 %
03.08.2018 23:38 27,3 C 26,1 C 25,6 C 51 % 1016,5 hPa 0,0 l/m 0 min 0 min 0 W/m 4,5 km/h (1 Bft) 95,74 %
03.08.2018 23:40 27,3 C 26,1 C 25,6 C 52 % 1016,5 hPa 0,0 l/m 0 min 0 min 0 W/m 4,5 km/h (1 Bft) 94,29 %
03.08.2018 23:42 27,3 C 26,1 C 25,6 C 52 % 1016,5 hPa 0,0 l/m 0 min 0 min 0 W/m 2,3 km/h (1 Bft) 96,55 %
03.08.2018 23:44 27,3 C 26,1 C 25,6 C 52 % 1016,5 hPa 0,0 l/m 0 min 0 min 0 W/m 11,3 km/h (2 Bft) 95,74 %
03.08.2018 23:46 27,3 C 26,1 C 25,6 C 52 % 1016,5 hPa 0,0 l/m 0 min 0 min 0 W/m 2,3 km/h (1 Bft) 93,62 %
03.08.2018 23:48 27,3 C 26,1 C 25,0 C 52 % 1016,6 hPa 0,0 l/m 0 min 0 min 0 W/m 4,5 km/h (1 Bft) 95,74 %
03.08.2018 23:50 27,3 C 26,1 C 25,6 C 52 % 1016,5 hPa 0,0 l/m 0 min 0 min 0 W/m 6,8 km/h (2 Bft) 97,87 %
03.08.2018 23:52 27,2 C 26,1 C 25,0 C 52 % 1016,5 hPa 0,0 l/m 0 min 0 min 0 W/m 2,3 km/h (1 Bft) 93,62 %
03.08.2018 23:54 27,2 C 26,1 C 25,0 C 52 % 1016,4 hPa 0,0 l/m 0 min 0 min 0 W/m 6,8 km/h (2 Bft) 93,48 %
03.08.2018 23:56 27,2 C 26,1 C 25,0 C 52 % 1016,4 hPa 0,0 l/m 0 min 0 min 0 W/m 4,5 km/h (1 Bft) 93,62 %
03.08.2018 23:58 27,2 C 26,1 C 25,0 C 52 % 1016,4 hPa 0,0 l/m 0 min 0 min 0 W/m 4,5 km/h (1 Bft) 91,49 %
_ Min-Zeit 07:14 05:34 05:42 16:40 18:44 - - - - 01:28 04:07
Minimum _ 18,7 C 17,8 C 18,3 C 41 % 1015,7 hPa - - - - 0,0 km/h (0 Bft) 89,29 %
_ Max-Zeit 13:16 12:24 16:12 07:48 00:08 00:00 12:08 00:00 15:00 18:32 00:00
Maximum _ 34,8 C 43,3 C 32,2 C 85 % 1020,3 hPa 0,0 l/m 4 min 0 min 867 W/m 18,0 km/h
W (3 Bft)
100,00 %
Durchschnitt _ 27,3 C 27,7 C 25,0 C 61 % 1018,2 hPa #0,0 l/m #10:12 h #0 min. 410 W/m 5,2 km/h (1 Bft) 97,54 %
© 2018 W. Hausmann